Observation data for Fort McKavett on 02/15/2017      Previous  Date  Next       Current Mesonet Observations  Soil Data  Daily Summary Page  Observations in Plain Language
KMC1 150600Z 33008KT 04/03 A3018 RMK A01 T00390025  RH  090%=      5-min Rain = 0
KMC1 150601Z 32006KT 04/03 A3018 RMK A01 T00390025  RH  090%=      5-min Rain = 0
KMC1 150602Z 33009KT 04/03 A3018 RMK A01 T00390025  RH  091%=      5-min Rain = 0
KMC1 150603Z 33009KT 04/03 A3018 RMK A01 T00390025  RH  091%=      5-min Rain = 0
KMC1 150604Z 33012KT 04/03 A3018 RMK A01 T00390025  RH  091%=      5-min Rain = 0
KMC1 150605Z 34012KT 04/03 A3018 RMK A01 T00390025  RH  091%=      5-min Rain = 0
KMC1 150606Z 33010KT 04/03 A3018 RMK A01 T00390025  RH  091%=      5-min Rain = 0
KMC1 150607Z 32008KT 04/03 A3018 RMK A01 T00390025  RH  091%=      5-min Rain = 0
KMC1 150608Z 33009KT 04/03 A3018 RMK A01 T00390025  RH  091%=      5-min Rain = 0
KMC1 150609Z 34007KT 04/03 A3018 RMK A01 T00380025  RH  091%=      5-min Rain = 0
KMC1 150610Z 32007KT 04/03 A3018 RMK A01 T00380025  RH  092%=      5-min Rain = 0
KMC1 150611Z 33010KT 04/03 A3018 RMK A01 T00380026  RH  092%=      5-min Rain = 0
KMC1 150612Z 34009KT 04/03 A3018 RMK A01 T00380025  RH  091%=      5-min Rain = 0
KMC1 150613Z 32008G14KT 04/03 A3018 RMK A01 T00380025  RH  091%=      5-min Rain = 0
KMC1 150614Z 33007KT 04/03 A3018 RMK A01 T00380025  RH  091%=      5-min Rain = 0
KMC1 150615Z 33008KT 04/03 A3018 RMK A01 T00380025  RH  091%=      5-min Rain = 0
KMC1 150616Z 33010KT 04/03 A3018 RMK A01 T00380025  RH  091%=      5-min Rain = 0
KMC1 150617Z 34010KT 04/03 A3017 RMK A01 T00380025  RH  091%=      5-min Rain = 0
KMC1 150618Z 33010KT 04/03 A3017 RMK A01 T00380025  RH  091%=      5-min Rain = 0
KMC1 150619Z 33011KT 04/02 A3017 RMK A01 T00380024  RH  091%=      5-min Rain = 0
KMC1 150620Z 33008KT 04/02 A3018 RMK A01 T00390024  RH  090%=      5-min Rain = 0
KMC1 150621Z 32007KT 04/02 A3018 RMK A01 T00390024  RH  090%=      5-min Rain = 0
KMC1 150622Z 33010KT 04/03 A3018 RMK A01 T00390025  RH  090%=      5-min Rain = 0
KMC1 150623Z 32009KT 04/02 A3018 RMK A01 T00390024  RH  090%=      5-min Rain = 0
KMC1 150624Z 33009KT 04/03 A3018 RMK A01 T00390025  RH  090%=      5-min Rain = 0
KMC1 150625Z 33007KT 04/02 A3018 RMK A01 T00400024  RH  090%=      5-min Rain = 0
KMC1 150626Z 33007KT 04/03 A3018 RMK A01 T00390025  RH  090%=      5-min Rain = 0
KMC1 150627Z 33008KT 04/03 A3018 RMK A01 T00390025  RH  090%=      5-min Rain = 0
KMC1 150628Z 33007KT 04/03 A3018 RMK A01 T00400025  RH  090%=      5-min Rain = 0
KMC1 150629Z 33006KT 04/02 A3018 RMK A01 T00390024  RH  090%=      5-min Rain = 0
KMC1 150630Z 33008KT 04/03 A3018 RMK A01 T00390025  RH  090%=      5-min Rain = 0
KMC1 150631Z 32005KT 04/02 A3018 RMK A01 T00390024  RH  090%=      5-min Rain = 0
KMC1 150632Z 33005KT 04/03 A3018 RMK A01 T00400025  RH  090%=      5-min Rain = 0
KMC1 150633Z 32006KT 04/03 A3018 RMK A01 T00400025  RH  090%=      5-min Rain = 0
KMC1 150634Z 32010KT 04/03 A3018 RMK A01 T00400026  RH  090%=      5-min Rain = 0
KMC1 150635Z 31005KT 04/03 A3018 RMK A01 T00400025  RH  090%=      5-min Rain = 0
KMC1 150636Z 32005KT 04/03 A3018 RMK A01 T00400025  RH  090%=      5-min Rain = 0
KMC1 150637Z 32006KT 04/03 A3018 RMK A01 T00400025  RH  090%=      5-min Rain = 0
KMC1 150638Z 33005KT 04/03 A3018 RMK A01 T00400025  RH  090%=      5-min Rain = 0
KMC1 150639Z 32006KT 04/02 A3019 RMK A01 T00400024  RH  090%=      5-min Rain = 0
KMC1 150640Z 32005KT 04/02 A3019 RMK A01 T00400024  RH  090%=      5-min Rain = 0
KMC1 150641Z 31005KT 04/03 A3019 RMK A01 T00400025  RH  090%=      5-min Rain = 0
KMC1 150642Z 32006KT 04/02 A3019 RMK A01 T00400024  RH  090%=      5-min Rain = 0
KMC1 150643Z 32005KT 04/02 A3019 RMK A01 T00390024  RH  090%=      5-min Rain = 0
KMC1 150644Z 32005KT 04/02 A3019 RMK A01 T00390024  RH  090%=      5-min Rain = 0
KMC1 150645Z 32007KT 04/02 A3019 RMK A01 T00390024  RH  090%=      5-min Rain = 0
KMC1 150646Z 32008KT 04/02 A3019 RMK A01 T00380023  RH  090%=      5-min Rain = 0
KMC1 150647Z 32005KT 04/02 A3019 RMK A01 T00380023  RH  090%=      5-min Rain = 0
KMC1 150648Z 32006KT 04/02 A3019 RMK A01 T00390023  RH  090%=      5-min Rain = 0
KMC1 150649Z 32006KT 04/02 A3019 RMK A01 T00380023  RH  090%=      5-min Rain = 0
KMC1 150650Z 32007KT 04/02 A3019 RMK A01 T00380023  RH  090%=      5-min Rain = 0
KMC1 150651Z 32005KT 04/02 A3019 RMK A01 T00380023  RH  090%=      5-min Rain = 0
KMC1 150652Z 30006KT 04/02 A3019 RMK A01 T00380023  RH  090%=      5-min Rain = 0
KMC1 150653Z 30007KT 04/02 A3019 RMK A01 T00380023  RH  090%=      5-min Rain = 0
KMC1 150654Z 31005KT 04/02 A3019 RMK A01 T00380023  RH  090%=      5-min Rain = 0
KMC1 150655Z 31005KT 04/02 A3019 RMK A01 T00370023  RH  090%=      5-min Rain = 0
KMC1 150656Z 32005KT 04/02 A3019 RMK A01 T00370023  RH  090%=      5-min Rain = 0
KMC1 150657Z 32005KT 04/02 A3019 RMK A01 T00370023  RH  090%=      5-min Rain = 0
KMC1 150658Z 31005KT 04/02 A3019 RMK A01 T00370023  RH  091%=      5-min Rain = 0
KMC1 150659Z 32005KT 04/02 A3019 RMK A01 T00370023  RH  091%=      5-min Rain = 0
KMC1 150700Z 32007KT 04/02 A3019 RMK A01 T00370023  RH  091%=      5-min Rain = 0
KMC1 150701Z 32004KT 04/02 A3019 RMK A01 T00370023  RH  091%=      5-min Rain = 0
KMC1 150702Z 31005KT 04/02 A3019 RMK A01 T00370022  RH  090%=      5-min Rain = 0
KMC1 150703Z 31005KT 04/02 A3019 RMK A01 T00370023  RH  091%=      5-min Rain = 0
KMC1 150704Z 32006KT 04/02 A3019 RMK A01 T00370023  RH  091%=      5-min Rain = 0
KMC1 150705Z 32005KT 04/02 A3019 RMK A01 T00370023  RH  091%=      5-min Rain = 0
KMC1 150706Z 32006KT 04/02 A3019 RMK A01 T00370023  RH  091%=      5-min Rain = 0
KMC1 150707Z 31005KT 04/02 A3019 RMK A01 T00370023  RH  090%=      5-min Rain = 0
KMC1 150708Z 32006KT 04/02 A3019 RMK A01 T00370023  RH  090%=      5-min Rain = 0
KMC1 150709Z 33005KT 04/02 A3019 RMK A01 T00370023  RH  090%=      5-min Rain = 0
KMC1 150710Z 31006KT 04/02 A3019 RMK A01 T00370023  RH  090%=      5-min Rain = 0
KMC1 150711Z 33005KT 04/02 A3019 RMK A01 T00370023  RH  090%=      5-min Rain = 0
KMC1 150712Z 33005KT 04/02 A3019 RMK A01 T00370023  RH  090%=      5-min Rain = 0
KMC1 150713Z 33005KT 04/02 A3019 RMK A01 T00370023  RH  090%=      5-min Rain = 0
KMC1 150714Z 32005KT 04/02 A3019 RMK A01 T00370023  RH  090%=      5-min Rain = 0
KMC1 150715Z 32004KT 04/02 A3019 RMK A01 T00370022  RH  090%=      5-min Rain = 0
KMC1 150716Z 32007KT 04/02 A3019 RMK A01 T00370023  RH  090%=      5-min Rain = 0
KMC1 150717Z 32005KT 04/02 A3019 RMK A01 T00370022  RH  090%=      5-min Rain = 0
KMC1 150718Z 32004KT 04/02 A3019 RMK A01 T00370022  RH  090%=      5-min Rain = 0
KMC1 150719Z 32005KT 04/02 A3019 RMK A01 T00370022  RH  090%=      5-min Rain = 0
KMC1 150720Z 32005KT 04/02 A3019 RMK A01 T00370022  RH  090%=      5-min Rain = 0
KMC1 150721Z 32004KT 04/02 A3018 RMK A01 T00370022  RH  090%=      5-min Rain = 0
KMC1 150722Z 32005KT 04/02 A3018 RMK A01 T00370022  RH  090%=      5-min Rain = 0
KMC1 150723Z 31005KT 04/02 A3018 RMK A01 T00370022  RH  090%=      5-min Rain = 0
KMC1 150724Z 32005KT 04/02 A3018 RMK A01 T00370022  RH  090%=      5-min Rain = 0
KMC1 150725Z 31006KT 04/02 A3018 RMK A01 T00360021  RH  090%=      5-min Rain = 0
KMC1 150726Z 32005KT 04/02 A3018 RMK A01 T00360021  RH  090%=      5-min Rain = 0
KMC1 150727Z 32003KT 04/02 A3018 RMK A01 T00360021  RH  090%=      5-min Rain = 0
KMC1 150728Z 31004KT 04/02 A3018 RMK A01 T00360021  RH  090%=      5-min Rain = 0
KMC1 150729Z 31004KT 04/02 A3019 RMK A01 T00360021  RH  090%=      5-min Rain = 0
KMC1 150730Z 31003KT 04/02 A3019 RMK A01 T00350021  RH  090%=      5-min Rain = 0
KMC1 150731Z 31005KT 04/02 A3019 RMK A01 T00350021  RH  090%=      5-min Rain = 0
KMC1 150732Z 31004KT 04/02 A3019 RMK A01 T00350020  RH  090%=      5-min Rain = 0
KMC1 150733Z 32005KT 04/02 A3019 RMK A01 T00350020  RH  090%=      5-min Rain = 0
KMC1 150734Z 31004KT 04/02 A3019 RMK A01 T00350020  RH  090%=      5-min Rain = 0
KMC1 150735Z 32003KT 04/02 A3019 RMK A01 T00350020  RH  090%=      5-min Rain = 0
KMC1 150736Z 31003KT 03/02 A3018 RMK A01 T00340020  RH  090%=      5-min Rain = 0
KMC1 150737Z 32004KT 03/02 A3018 RMK A01 T00340020  RH  091%=      5-min Rain = 0
KMC1 150738Z 31004KT 03/02 A3018 RMK A01 T00340020  RH  091%=      5-min Rain = 0
KMC1 150739Z 32005KT 03/02 A3018 RMK A01 T00330020  RH  091%=      5-min Rain = 0
KMC1 150740Z 31005KT 03/02 A3018 RMK A01 T00330020  RH  091%=      5-min Rain = 0
KMC1 150741Z 31005KT 03/02 A3018 RMK A01 T00330019  RH  091%=      5-min Rain = 0
KMC1 150742Z 32005KT 03/02 A3018 RMK A01 T00330020  RH  091%=      5-min Rain = 0
KMC1 150743Z 31005KT 03/02 A3018 RMK A01 T00330019  RH  091%=      5-min Rain = 0
KMC1 150744Z 31005KT 03/02 A3018 RMK A01 T00330020  RH  091%=      5-min Rain = 0
KMC1 150745Z 30004KT 03/02 A3018 RMK A01 T00330020  RH  091%=      5-min Rain = 0
KMC1 150746Z 31004KT 03/02 A3018 RMK A01 T00330020  RH  091%=      5-min Rain = 0
KMC1 150747Z 31004KT 03/02 A3018 RMK A01 T00330020  RH  091%=      5-min Rain = 0
KMC1 150748Z 32004KT 03/02 A3018 RMK A01 T00320019  RH  091%=      5-min Rain = 0
KMC1 150749Z 31004KT 03/02 A3018 RMK A01 T00330019  RH  091%=      5-min Rain = 0
KMC1 150750Z 31004KT 03/02 A3018 RMK A01 T00330019  RH  091%=      5-min Rain = 0
KMC1 150751Z 31005KT 03/02 A3018 RMK A01 T00330019  RH  091%=      5-min Rain = 0
KMC1 150752Z 31005KT 03/02 A3018 RMK A01 T00330019  RH  091%=      5-min Rain = 0
KMC1 150753Z 31005KT 03/02 A3018 RMK A01 T00330020  RH  091%=      5-min Rain = 0
KMC1 150754Z 31005KT 03/02 A3018 RMK A01 T00330019  RH  091%=      5-min Rain = 0
KMC1 150755Z 31005KT 03/02 A3018 RMK A01 T00330019  RH  091%=      5-min Rain = 0
KMC1 150756Z 31005KT 03/02 A3018 RMK A01 T00330020  RH  091%=      5-min Rain = 0
KMC1 150757Z 31005KT 03/02 A3018 RMK A01 T00330020  RH  091%=      5-min Rain = 0
KMC1 150758Z 31005KT 03/02 A3018 RMK A01 T00330020  RH  091%=      5-min Rain = 0
KMC1 150759Z 31005KT 03/02 A3018 RMK A01 T00320019  RH  091%=      5-min Rain = 0
KMC1 150800Z 31005KT 03/02 A3018 RMK A01 T00320019  RH  091%=      5-min Rain = 0
KMC1 150801Z 31005KT 03/02 A3018 RMK A01 T00320019  RH  091%=      5-min Rain = 0
KMC1 150802Z 31005KT 03/02 A3018 RMK A01 T00320019  RH  091%=      5-min Rain = 0
KMC1 150803Z 31005KT 03/02 A3018 RMK A01 T00320019  RH  091%=      5-min Rain = 0
KMC1 150804Z 31005KT 03/02 A3018 RMK A01 T00320019  RH  091%=      5-min Rain = 0
KMC1 150805Z 30004KT 03/02 A3018 RMK A01 T00320019  RH  091%=      5-min Rain = 0
KMC1 150806Z 31005KT 03/02 A3018 RMK A01 T00320019  RH  091%=      5-min Rain = 0
KMC1 150807Z 31005KT 03/02 A3018 RMK A01 T00320019  RH  091%=      5-min Rain = 0
KMC1 150808Z 30006KT 03/02 A3018 RMK A01 T00320019  RH  091%=      5-min Rain = 0
KMC1 150809Z 31005KT 03/02 A3018 RMK A01 T00320019  RH  091%=      5-min Rain = 0
KMC1 150810Z 31004KT 03/02 A3018 RMK A01 T00320019  RH  091%=      5-min Rain = 0
KMC1 150811Z 31006KT 03/02 A3018 RMK A01 T00320019  RH  092%=      5-min Rain = 0
KMC1 150812Z 30005KT 03/02 A3018 RMK A01 T00320019  RH  092%=      5-min Rain = 0
KMC1 150813Z 30005KT 03/02 A3018 RMK A01 T00320019  RH  092%=      5-min Rain = 0
KMC1 150814Z 30006KT 03/02 A3018 RMK A01 T00320019  RH  092%=      5-min Rain = 0
KMC1 150815Z 30005KT 03/02 A3018 RMK A01 T00320019  RH  092%=      5-min Rain = 0
KMC1 150816Z 30006KT 03/02 A3018 RMK A01 T00320019  RH  092%=      5-min Rain = 0
KMC1 150817Z 29005KT 03/02 A3018 RMK A01 T00320019  RH  092%=      5-min Rain = 0
KMC1 150818Z 29005KT 03/02 A3018 RMK A01 T00320020  RH  092%=      5-min Rain = 0
KMC1 150819Z 29005KT 03/02 A3018 RMK A01 T00320020  RH  092%=      5-min Rain = 0
KMC1 150820Z 29005KT 03/02 A3018 RMK A01 T00310020  RH  092%=      5-min Rain = 0
KMC1 150821Z 29005KT 03/02 A3018 RMK A01 T00320020  RH  092%=      5-min Rain = 0
KMC1 150822Z 29005KT 03/02 A3018 RMK A01 T00320020  RH  092%=      5-min Rain = 0
KMC1 150823Z 30005KT 03/02 A3018 RMK A01 T00320020  RH  092%=      5-min Rain = 0
KMC1 150824Z 29004KT 03/02 A3018 RMK A01 T00320020  RH  092%=      5-min Rain = 0
KMC1 150825Z 30005KT 03/02 A3018 RMK A01 T00320020  RH  092%=      5-min Rain = 0
KMC1 150826Z 30004KT 03/02 A3018 RMK A01 T00320020  RH  092%=      5-min Rain = 0
KMC1 150827Z 30006KT 03/02 A3018 RMK A01 T00320020  RH  092%=      5-min Rain = 0
KMC1 150828Z 30005KT 03/02 A3018 RMK A01 T00320020  RH  092%=      5-min Rain = 0
KMC1 150829Z 30004KT 03/02 A3018 RMK A01 T00320020  RH  092%=      5-min Rain = 0
KMC1 150830Z 29004KT 03/02 A3018 RMK A01 T00320020  RH  092%=      5-min Rain = 0
KMC1 150831Z 29004KT 03/02 A3018 RMK A01 T00320020  RH  092%=      5-min Rain = 0
KMC1 150832Z 29005KT 03/02 A3018 RMK A01 T00320019  RH  092%=      5-min Rain = 0
KMC1 150833Z 29003KT 03/02 A3018 RMK A01 T00330020  RH  091%=      5-min Rain = 0
KMC1 150834Z 28004KT 03/02 A3018 RMK A01 T00330020  RH  091%=      5-min Rain = 0
KMC1 150835Z 28004KT 03/02 A3018 RMK A01 T00320020  RH  091%=      5-min Rain = 0
KMC1 150836Z 30005KT 03/02 A3018 RMK A01 T00330020  RH  091%=      5-min Rain = 0
KMC1 150837Z 29004KT 03/02 A3018 RMK A01 T00330019  RH  091%=      5-min Rain = 0
KMC1 150838Z 29005KT 03/02 A3018 RMK A01 T00330019  RH  091%=      5-min Rain = 0
KMC1 150839Z 29005KT 03/02 A3018 RMK A01 T00330019  RH  091%=      5-min Rain = 0
KMC1 150840Z 30004KT 03/02 A3018 RMK A01 T00340020  RH  091%=      5-min Rain = 0
KMC1 150841Z 30005KT 03/02 A3018 RMK A01 T00340020  RH  090%=      5-min Rain = 0
KMC1 150842Z 30004KT 03/02 A3018 RMK A01 T00340019  RH  090%=      5-min Rain = 0
KMC1 150843Z 31003KT 03/02 A3017 RMK A01 T00340019  RH  090%=      5-min Rain = 0
KMC1 150844Z 30005KT 03/02 A3017 RMK A01 T00340019  RH  090%=      5-min Rain = 0
KMC1 150845Z 29005KT 03/02 A3017 RMK A01 T00340019  RH  090%=      5-min Rain = 0
KMC1 150846Z 30006KT 03/02 A3017 RMK A01 T00340019  RH  090%=      5-min Rain = 0
KMC1 150847Z 30005KT 03/02 A3017 RMK A01 T00340019  RH  090%=      5-min Rain = 0
KMC1 150848Z 28005KT 03/02 A3017 RMK A01 T00340020  RH  090%=      5-min Rain = 0
KMC1 150849Z 29005KT 04/02 A3017 RMK A01 T00350020  RH  090%=      5-min Rain = 0
KMC1 150850Z 29006KT 03/02 A3017 RMK A01 T00340019  RH  090%=      5-min Rain = 0
KMC1 150851Z 30006KT 04/02 A3017 RMK A01 T00350019  RH  090%=      5-min Rain = 0
KMC1 150852Z 30006KT 04/02 A3017 RMK A01 T00350019  RH  089%=      5-min Rain = 0
KMC1 150853Z 29007KT 04/02 A3017 RMK A01 T00350019  RH  089%=      5-min Rain = 0
KMC1 150854Z 30006KT 04/02 A3017 RMK A01 T00350018  RH  089%=      5-min Rain = 0
KMC1 150855Z 30007KT 04/02 A3017 RMK A01 T00350019  RH  089%=      5-min Rain = 0
KMC1 150856Z 30007KT 04/02 A3017 RMK A01 T00360019  RH  089%=      5-min Rain = 0
KMC1 150857Z 30006KT 04/02 A3017 RMK A01 T00350018  RH  088%=      5-min Rain = 0
KMC1 150858Z 30006KT 04/02 A3017 RMK A01 T00350017  RH  088%=      5-min Rain = 0
KMC1 150859Z 30006KT 04/02 A3017 RMK A01 T00350017  RH  088%=      5-min Rain = 0
KMC1 150900Z 30006KT 04/02 A3017 RMK A01 T00350017  RH  088%=      5-min Rain = 0
KMC1 150901Z 30006KT 04/02 A3017 RMK A01 T00350017  RH  088%=      5-min Rain = 0
KMC1 150902Z 29005KT 04/02 A3017 RMK A01 T00350017  RH  088%=      5-min Rain = 0
KMC1 150903Z 30006KT 04/02 A3017 RMK A01 T00350017  RH  088%=      5-min Rain = 0
KMC1 150904Z 30006KT 04/02 A3017 RMK A01 T00350017  RH  088%=      5-min Rain = 0
KMC1 150905Z 30006KT 04/02 A3017 RMK A01 T00350017  RH  088%=      5-min Rain = 0
KMC1 150906Z 29008KT 04/02 A3017 RMK A01 T00350017  RH  088%=      5-min Rain = 0
KMC1 150907Z 30006KT 04/02 A3017 RMK A01 T00350016  RH  088%=      5-min Rain = 0
KMC1 150908Z 30007KT 04/02 A3017 RMK A01 T00350016  RH  088%=      5-min Rain = 0
KMC1 150909Z 30007KT 04/02 A3017 RMK A01 T00350016  RH  088%=      5-min Rain = 0
KMC1 150910Z 29006KT 04/02 A3017 RMK A01 T00350016  RH  087%=      5-min Rain = 0
KMC1 150911Z 29006KT 04/02 A3017 RMK A01 T00350016  RH  087%=      5-min Rain = 0
KMC1 150912Z 29006KT 04/02 A3017 RMK A01 T00350016  RH  087%=      5-min Rain = 0
KMC1 150913Z 30005KT 04/02 A3017 RMK A01 T00350016  RH  087%=      5-min Rain = 0
KMC1 150914Z 29005KT 04/02 A3017 RMK A01 T00350016  RH  087%=      5-min Rain = 0
KMC1 150915Z 29006KT 04/02 A3017 RMK A01 T00350016  RH  087%=      5-min Rain = 0
KMC1 150916Z 30006KT 04/02 A3017 RMK A01 T00350016  RH  087%=      5-min Rain = 0
KMC1 150917Z 30005KT 04/02 A3017 RMK A01 T00350016  RH  087%=      5-min Rain = 0
KMC1 150918Z 30006KT 04/02 A3017 RMK A01 T00350016  RH  087%=      5-min Rain = 0
KMC1 150919Z 30006KT 03/02 A3017 RMK A01 T00340015  RH  087%=      5-min Rain = 0
KMC1 150920Z 30006KT 03/02 A3017 RMK A01 T00340015  RH  087%=      5-min Rain = 0
KMC1 150921Z 30007KT 03/02 A3016 RMK A01 T00340015  RH  087%=      5-min Rain = 0
KMC1 150922Z 30006KT 03/02 A3016 RMK A01 T00340015  RH  087%=      5-min Rain = 0
KMC1 150923Z 30006KT 04/02 A3016 RMK A01 T00350015  RH  087%=      5-min Rain = 0
KMC1 150924Z 30006KT 03/02 A3016 RMK A01 T00340015  RH  087%=      5-min Rain = 0
KMC1 150925Z 30006KT 03/02 A3016 RMK A01 T00340015  RH  087%=      5-min Rain = 0
KMC1 150926Z 30006KT 03/02 A3016 RMK A01 T00340015  RH  087%=      5-min Rain = 0
KMC1 150927Z 30005KT 03/02 A3016 RMK A01 T00340015  RH  087%=      5-min Rain = 0
KMC1 150928Z 30006KT 03/02 A3016 RMK A01 T00340015  RH  087%=      5-min Rain = 0
KMC1 150929Z 30007KT 03/02 A3016 RMK A01 T00340015  RH  087%=      5-min Rain = 0
KMC1 150930Z 30006KT 03/01 A3016 RMK A01 T00330014  RH  087%=      5-min Rain = 0
KMC1 150931Z 30006KT 03/01 A3016 RMK A01 T00340014  RH  087%=      5-min Rain = 0
KMC1 150932Z 30005KT 03/01 A3016 RMK A01 T00340014  RH  087%=      5-min Rain = 0
KMC1 150933Z 30006KT 03/01 A3016 RMK A01 T00340014  RH  087%=      5-min Rain = 0
KMC1 150934Z 29005KT 03/01 A3016 RMK A01 T00330014  RH  087%=      5-min Rain = 0
KMC1 150935Z 30005KT 03/01 A3016 RMK A01 T00330014  RH  087%=      5-min Rain = 0
KMC1 150936Z 30005KT 03/01 A3016 RMK A01 T00330014  RH  088%=      5-min Rain = 0
KMC1 150937Z 30005KT 03/01 A3016 RMK A01 T00330014  RH  088%=      5-min Rain = 0
KMC1 150938Z 30005KT 03/01 A3016 RMK A01 T00330014  RH  088%=      5-min Rain = 0
KMC1 150939Z 30005KT 03/01 A3016 RMK A01 T00330014  RH  088%=      5-min Rain = 0
KMC1 150940Z 30006KT 03/01 A3016 RMK A01 T00320014  RH  088%=      5-min Rain = 0
KMC1 150941Z 29006KT 03/01 A3016 RMK A01 T00320014  RH  088%=      5-min Rain = 0
KMC1 150942Z 29005KT 03/01 A3016 RMK A01 T00320013  RH  088%=      5-min Rain = 0
KMC1 150943Z 29005KT 03/01 A3016 RMK A01 T00320014  RH  088%=      5-min Rain = 0
KMC1 150944Z 29005KT 03/01 A3016 RMK A01 T00320014  RH  088%=      5-min Rain = 0
KMC1 150945Z 29005KT 03/01 A3016 RMK A01 T00320013  RH  088%=      5-min Rain = 0
KMC1 150946Z 29005KT 03/01 A3016 RMK A01 T00320013  RH  088%=      5-min Rain = 0
KMC1 150947Z 29005KT 03/01 A3016 RMK A01 T00320013  RH  088%=      5-min Rain = 0
KMC1 150948Z 29006KT 03/01 A3016 RMK A01 T00320013  RH  088%=      5-min Rain = 0
KMC1 150949Z 29004KT 03/01 A3016 RMK A01 T00320013  RH  088%=      5-min Rain = 0
KMC1 150950Z 29004KT 03/01 A3016 RMK A01 T00320013  RH  087%=      5-min Rain = 0
KMC1 150951Z 29005KT 03/01 A3017 RMK A01 T00320013  RH  088%=      5-min Rain = 0
KMC1 150952Z 28004KT 03/01 A3017 RMK A01 T00320013  RH  088%=      5-min Rain = 0
KMC1 150953Z 29004KT 03/01 A3017 RMK A01 T00320013  RH  088%=      5-min Rain = 0
KMC1 150954Z 28005KT 03/01 A3017 RMK A01 T00320013  RH  088%=      5-min Rain = 0
KMC1 150955Z 29005KT 03/01 A3017 RMK A01 T00320013  RH  087%=      5-min Rain = 0
KMC1 150956Z 29004KT 03/01 A3017 RMK A01 T00320013  RH  087%=      5-min Rain = 0
KMC1 150957Z 28004KT 03/01 A3017 RMK A01 T00320013  RH  087%=      5-min Rain = 0
KMC1 150958Z 29005KT 03/01 A3016 RMK A01 T00320013  RH  087%=      5-min Rain = 0
KMC1 150959Z 28006KT 03/01 A3016 RMK A01 T00330013  RH  087%=      5-min Rain = 0
KMC1 151000Z 29005KT 03/01 A3016 RMK A01 T00320013  RH  087%=      5-min Rain = 0
KMC1 151001Z 29004KT 03/01 A3016 RMK A01 T00320012  RH  087%=      5-min Rain = 0
KMC1 151002Z 29005KT 03/01 A3017 RMK A01 T00320012  RH  087%=      5-min Rain = 0
KMC1 151003Z 29005KT 03/01 A3017 RMK A01 T00320012  RH  087%=      5-min Rain = 0
KMC1 151004Z 28005KT 03/01 A3017 RMK A01 T00320012  RH  087%=      5-min Rain = 0
KMC1 151005Z 29005KT 03/01 A3017 RMK A01 T00320012  RH  087%=      5-min Rain = 0
KMC1 151006Z 28005KT 03/01 A3017 RMK A01 T00320012  RH  086%=      5-min Rain = 0
KMC1 151007Z 28005KT 03/01 A3017 RMK A01 T00320011  RH  086%=      5-min Rain = 0
KMC1 151008Z 29006KT 03/01 A3017 RMK A01 T00320011  RH  086%=      5-min Rain = 0
KMC1 151009Z 28005KT 03/01 A3017 RMK A01 T00320011  RH  086%=      5-min Rain = 0
KMC1 151010Z 28005KT 03/01 A3017 RMK A01 T00320011  RH  086%=      5-min Rain = 0
KMC1 151011Z 29005KT 03/01 A3017 RMK A01 T00330012  RH  086%=      5-min Rain = 0
KMC1 151012Z 29005KT 03/01 A3017 RMK A01 T00330011  RH  086%=      5-min Rain = 0
KMC1 151013Z 28005KT 03/01 A3017 RMK A01 T00330011  RH  086%=      5-min Rain = 0
KMC1 151014Z 29006KT 03/01 A3017 RMK A01 T00320011  RH  086%=      5-min Rain = 0
KMC1 151015Z 29006KT 03/01 A3017 RMK A01 T00320011  RH  086%=      5-min Rain = 0
KMC1 151016Z 28005KT 03/01 A3017 RMK A01 T00320011  RH  086%=      5-min Rain = 0
KMC1 151017Z 29004KT 03/01 A3017 RMK A01 T00320010  RH  086%=      5-min Rain = 0
KMC1 151018Z 28005KT 03/01 A3017 RMK A01 T00320010  RH  086%=      5-min Rain = 0
KMC1 151019Z 29004KT 03/01 A3017 RMK A01 T00320010  RH  086%=      5-min Rain = 0
KMC1 151020Z 29005KT 03/01 A3017 RMK A01 T00320010  RH  086%=      5-min Rain = 0
KMC1 151021Z 28005KT 03/01 A3018 RMK A01 T00320010  RH  086%=      5-min Rain = 0
KMC1 151022Z 29006KT 03/01 A3018 RMK A01 T00320010  RH  085%=      5-min Rain = 0
KMC1 151023Z 29005KT 03/01 A3018 RMK A01 T00320009  RH  085%=      5-min Rain = 0
KMC1 151024Z 29006KT 03/01 A3018 RMK A01 T00330009  RH  085%=      5-min Rain = 0
KMC1 151025Z 28005KT 03/01 A3018 RMK A01 T00330009  RH  084%=      5-min Rain = 0
KMC1 151026Z 29005KT 03/01 A3018 RMK A01 T00330009  RH  084%=      5-min Rain = 0
KMC1 151027Z 28004KT 03/01 A3017 RMK A01 T00330009  RH  084%=      5-min Rain = 0
KMC1 151028Z 29007KT 03/01 A3017 RMK A01 T00330009  RH  084%=      5-min Rain = 0
KMC1 151029Z 29005KT 03/01 A3017 RMK A01 T00330009  RH  084%=      5-min Rain = 0
KMC1 151030Z 29006KT 03/01 A3017 RMK A01 T00330009  RH  084%=      5-min Rain = 0
KMC1 151031Z 29005KT 03/01 A3017 RMK A01 T00330009  RH  084%=      5-min Rain = 0
KMC1 151032Z 29004KT 03/01 A3017 RMK A01 T00340009  RH  084%=      5-min Rain = 0
KMC1 151033Z 28005KT 03/01 A3017 RMK A01 T00340009  RH  084%=      5-min Rain = 0
KMC1 151034Z 28005KT 03/01 A3017 RMK A01 T00330009  RH  084%=      5-min Rain = 0
KMC1 151035Z 29005KT 03/01 A3017 RMK A01 T00330008  RH  084%=      5-min Rain = 0
KMC1 151036Z 29006KT 03/01 A3017 RMK A01 T00330008  RH  084%=      5-min Rain = 0
KMC1 151037Z 28006KT 03/01 A3017 RMK A01 T00330008  RH  084%=      5-min Rain = 0
KMC1 151038Z 29005KT 03/01 A3017 RMK A01 T00340008  RH  083%=      5-min Rain = 0
KMC1 151039Z 28004KT 03/01 A3017 RMK A01 T00340008  RH  083%=      5-min Rain = 0
KMC1 151040Z 29007KT 03/01 A3017 RMK A01 T00340008  RH  083%=      5-min Rain = 0
KMC1 151041Z 28005KT 03/01 A3017 RMK A01 T00340008  RH  083%=      5-min Rain = 0
KMC1 151042Z 28005KT 03/01 A3017 RMK A01 T00340008  RH  083%=      5-min Rain = 0
KMC1 151043Z 28006KT 03/01 A3017 RMK A01 T00340008  RH  083%=      5-min Rain = 0
KMC1 151044Z 28005KT 03/01 A3017 RMK A01 T00330007  RH  083%=      5-min Rain = 0
KMC1 151045Z 28005KT 03/01 A3017 RMK A01 T00340008  RH  083%=      5-min Rain = 0
KMC1 151046Z 27005KT 03/01 A3017 RMK A01 T00330007  RH  083%=      5-min Rain = 0
KMC1 151047Z 28004KT 03/01 A3017 RMK A01 T00330007  RH  083%=      5-min Rain = 0
KMC1 151048Z 28005KT 03/01 A3017 RMK A01 T00330007  RH  083%=      5-min Rain = 0
KMC1 151049Z 27005KT 03/01 A3017 RMK A01 T00320007  RH  083%=      5-min Rain = 0
KMC1 151050Z 28005KT 03/01 A3017 RMK A01 T00320007  RH  083%=      5-min Rain = 0
KMC1 151051Z 28004KT 03/01 A3017 RMK A01 T00320006  RH  083%=      5-min Rain = 0
KMC1 151052Z 28005KT 03/01 A3017 RMK A01 T00320006  RH  083%=      5-min Rain = 0
KMC1 151053Z 28005KT 03/01 A3017 RMK A01 T00320006  RH  083%=      5-min Rain = 0
KMC1 151054Z 28005KT 03/01 A3017 RMK A01 T00320006  RH  083%=      5-min Rain = 0
KMC1 151055Z 28006KT 03/01 A3017 RMK A01 T00320006  RH  083%=      5-min Rain = 0
KMC1 151056Z 27005KT 03/01 A3017 RMK A01 T00310006  RH  083%=      5-min Rain = 0
KMC1 151057Z 28005KT 03/01 A3018 RMK A01 T00310006  RH  084%=      5-min Rain = 0
KMC1 151058Z 27004KT 03/01 A3018 RMK A01 T00300006  RH  084%=      5-min Rain = 0
KMC1 151059Z 27003KT 03/01 A3018 RMK A01 T00300006  RH  084%=      5-min Rain = 0
KMC1 151100Z 27005KT 03/01 A3018 RMK A01 T00300006  RH  084%=      5-min Rain = 0
KMC1 151101Z 28005KT 03/01 A3018 RMK A01 T00300006  RH  084%=      5-min Rain = 0
KMC1 151102Z 28005KT 03/01 A3018 RMK A01 T00300005  RH  084%=      5-min Rain = 0
KMC1 151103Z 27005KT 03/01 A3018 RMK A01 T00290005  RH  084%=      5-min Rain = 0
KMC1 151104Z 27005KT 03/01 A3018 RMK A01 T00290005  RH  084%=      5-min Rain = 0
KMC1 151105Z 27005KT 03/01 A3018 RMK A01 T00290005  RH  084%=      5-min Rain = 0
KMC1 151106Z 28005KT 03/01 A3018 RMK A01 T00290005  RH  084%=      5-min Rain = 0
KMC1 151107Z 28006KT 03/01 A3018 RMK A01 T00290005  RH  084%=      5-min Rain = 0
KMC1 151108Z 27003KT 03/01 A3018 RMK A01 T00290005  RH  084%=      5-min Rain = 0
KMC1 151109Z 27004KT 03/01 A3018 RMK A01 T00280005  RH  084%=      5-min Rain = 0
KMC1 151110Z 27003KT 03/01 A3018 RMK A01 T00280005  RH  085%=      5-min Rain = 0
KMC1 151111Z 27005KT 03/01 A3018 RMK A01 T00280005  RH  085%=      5-min Rain = 0
KMC1 151112Z 26004KT 03/01 A3018 RMK A01 T00280005  RH  085%=      5-min Rain = 0
KMC1 151113Z 27004KT 03/01 A3018 RMK A01 T00270005  RH  085%=      5-min Rain = 0
KMC1 151114Z 26004KT 03/00 A3018 RMK A01 T00260004  RH  085%=      5-min Rain = 0
KMC1 151115Z 27004KT 03/00 A3018 RMK A01 T00260004  RH  086%=      5-min Rain = 0
KMC1 151116Z 26004KT 03/01 A3018 RMK A01 T00260005  RH  086%=      5-min Rain = 0
KMC1 151117Z 26004KT 03/00 A3018 RMK A01 T00250004  RH  086%=      5-min Rain = 0
KMC1 151118Z 27004KT 03/00 A3018 RMK A01 T00250004  RH  086%=      5-min Rain = 0
KMC1 151119Z 26004KT 03/00 A3018 RMK A01 T00250004  RH  086%=      5-min Rain = 0
KMC1 151120Z 27005KT 02/00 A3018 RMK A01 T00240004  RH  086%=      5-min Rain = 0
KMC1 151121Z 27004KT 02/00 A3018 RMK A01 T00240004  RH  086%=      5-min Rain = 0
KMC1 151122Z 26004KT 02/00 A3018 RMK A01 T00240004  RH  087%=      5-min Rain = 0
KMC1 151123Z 27004KT 02/00 A3018 RMK A01 T00240004  RH  087%=      5-min Rain = 0
KMC1 151124Z 27005KT 02/00 A3018 RMK A01 T00240004  RH  087%=      5-min Rain = 0
KMC1 151125Z 27005KT 02/00 A3018 RMK A01 T00230004  RH  087%=      5-min Rain = 0
KMC1 151126Z 27005KT 02/00 A3018 RMK A01 T00230004  RH  087%=      5-min Rain = 0
KMC1 151127Z 27005KT 02/00 A3018 RMK A01 T00230003  RH  087%=      5-min Rain = 0
KMC1 151128Z 27004KT 02/00 A3018 RMK A01 T00230004  RH  087%=      5-min Rain = 0
KMC1 151129Z 27004KT 02/00 A3019 RMK A01 T00230003  RH  087%=      5-min Rain = 0
KMC1 151130Z 26005KT 02/00 A3018 RMK A01 T00220003  RH  087%=      5-min Rain = 0
KMC1 151131Z 26005KT 02/00 A3019 RMK A01 T00220003  RH  087%=      5-min Rain = 0
KMC1 151132Z 27004KT 02/00 A3018 RMK A01 T00220003  RH  087%=      5-min Rain = 0
KMC1 151133Z 26005KT 02/00 A3018 RMK A01 T00220003  RH  087%=      5-min Rain = 0
KMC1 151134Z 26004KT 02/00 A3018 RMK A01 T00220003  RH  087%=      5-min Rain = 0
KMC1 151135Z 26004KT 02/00 A3018 RMK A01 T00220003  RH  087%=      5-min Rain = 0
KMC1 151136Z 25005KT 02/00 A3018 RMK A01 T00210003  RH  088%=      5-min Rain = 0
KMC1 151137Z 25005KT 02/00 A3018 RMK A01 T00210003  RH  088%=      5-min Rain = 0
KMC1 151138Z 25005KT 02/00 A3018 RMK A01 T00200002  RH  088%=      5-min Rain = 0
KMC1 151139Z 25005KT 02/00 A3018 RMK A01 T00190002  RH  088%=      5-min Rain = 0
KMC1 151140Z 26004KT 02/00 A3018 RMK A01 T00190002  RH  089%=      5-min Rain = 0
KMC1 151141Z 25004KT 02/00 A3018 RMK A01 T00180002  RH  089%=      5-min Rain = 0
KMC1 151142Z 25005KT 02/00 A3018 RMK A01 T00180002  RH  089%=      5-min Rain = 0
KMC1 151143Z 25005KT 02/00 A3018 RMK A01 T00180002  RH  089%=      5-min Rain = 0
KMC1 151144Z 25005KT 02/00 A3018 RMK A01 T00180002  RH  089%=      5-min Rain = 0
KMC1 151145Z 26004KT 02/00 A3018 RMK A01 T00170002  RH  090%=      5-min Rain = 0
KMC1 151146Z 26005KT 02/00 A3018 RMK A01 T00180003  RH  090%=      5-min Rain = 0
KMC1 151147Z 26005KT 02/00 A3018 RMK A01 T00170002  RH  090%=      5-min Rain = 0
KMC1 151148Z 26005KT 02/00 A3018 RMK A01 T00180003  RH  090%=      5-min Rain = 0
KMC1 151149Z 26005KT 02/00 A3018 RMK A01 T00170002  RH  090%=      5-min Rain = 0
KMC1 151150Z 26005KT 02/00 A3018 RMK A01 T00170003  RH  090%=      5-min Rain = 0
KMC1 151151Z 26006KT 02/00 A3018 RMK A01 T00170003  RH  090%=      5-min Rain = 0
KMC1 151152Z 26005KT 02/00 A3018 RMK A01 T00170003  RH  090%=      5-min Rain = 0
KMC1 151153Z 26005KT 02/00 A3018 RMK A01 T00170002  RH  090%=      5-min Rain = 0
KMC1 151154Z 26006KT 02/00 A3018 RMK A01 T00170002  RH  090%=      5-min Rain = 0
KMC1 151155Z 26005KT 02/00 A3018 RMK A01 T00160002  RH  090%=      5-min Rain = 0
KMC1 151156Z 26006KT 02/00 A3018 RMK A01 T00170002  RH  090%=      5-min Rain = 0
KMC1 151157Z 26005KT 02/00 A3018 RMK A01 T00170002  RH  090%=      5-min Rain = 0
KMC1 151158Z 26005KT 02/00 A3018 RMK A01 T00170002  RH  090%=      5-min Rain = 0
KMC1 151159Z 27005KT 02/00 A3018 RMK A01 T00170002  RH  090%=      5-min Rain = 0
KMC1 151200Z 27005KT 02/00 A3018 RMK A01 T00170002  RH  090%=      5-min Rain = 0
KMC1 151201Z 27005KT 02/00 A3018 RMK A01 T00170002  RH  090%=      5-min Rain = 0
KMC1 151202Z 27005KT 02/00 A3018 RMK A01 T00160002  RH  090%=      5-min Rain = 0
KMC1 151203Z 27005KT 02/00 A3018 RMK A01 T00160002  RH  090%=      5-min Rain = 0
KMC1 151204Z 26005KT 02/00 A3018 RMK A01 T00160002  RH  090%=      5-min Rain = 0
KMC1 151205Z 27005KT 02/00 A3018 RMK A01 T00160002  RH  090%=      5-min Rain = 0
KMC1 151206Z 27004KT 02/00 A3018 RMK A01 T00160002  RH  090%=      5-min Rain = 0
KMC1 151207Z 27005KT 02/00 A3018 RMK A01 T00160001  RH  090%=      5-min Rain = 0
KMC1 151208Z 27004KT 02/00 A3018 RMK A01 T00160002  RH  090%=      5-min Rain = 0
KMC1 151209Z 27004KT 02/00 A3019 RMK A01 T00150001  RH  090%=      5-min Rain = 0
KMC1 151210Z 26005KT 02/00 A3019 RMK A01 T00150001  RH  090%=      5-min Rain = 0
KMC1 151211Z 26004KT 02/00 A3019 RMK A01 T00150002  RH  091%=      5-min Rain = 0
KMC1 151212Z 27005KT 02/00 A3019 RMK A01 T00150001  RH  091%=      5-min Rain = 0
KMC1 151213Z 26005KT 02/00 A3019 RMK A01 T00150001  RH  091%=      5-min Rain = 0
KMC1 151214Z 27005KT 01/00 A3019 RMK A01 T00140001  RH  091%=      5-min Rain = 0
KMC1 151215Z 26005KT 01/00 A3019 RMK A01 T00140001  RH  091%=      5-min Rain = 0
KMC1 151216Z 26004KT 01/00 A3019 RMK A01 T00140001  RH  091%=      5-min Rain = 0
KMC1 151217Z 26004KT 01/00 A3019 RMK A01 T00140001  RH  091%=      5-min Rain = 0
KMC1 151218Z 26005KT 01/00 A3019 RMK A01 T00140001  RH  091%=      5-min Rain = 0
KMC1 151219Z 27005KT 01/00 A3019 RMK A01 T00140001  RH  091%=      5-min Rain = 0
KMC1 151220Z 27005KT 01/00 A3019 RMK A01 T00140001  RH  091%=      5-min Rain = 0
KMC1 151221Z 26005KT 01/00 A3019 RMK A01 T00130001  RH  091%=      5-min Rain = 0
KMC1 151222Z 27006KT 01/00 A3019 RMK A01 T00130000  RH  091%=      5-min Rain = 0
KMC1 151223Z 27005KT 01/00 A3019 RMK A01 T00130000  RH  091%=      5-min Rain = 0
KMC1 151224Z 27005KT 01/00 A3019 RMK A01 T00130000  RH  091%=      5-min Rain = 0
KMC1 151225Z 27005KT 01/00 A3019 RMK A01 T00130000  RH  091%=      5-min Rain = 0
KMC1 151226Z 27004KT 01/00 A3019 RMK A01 T001300-0  RH  091%=      5-min Rain = 0
KMC1 151227Z 27005KT 01/00 A3019 RMK A01 T00130000  RH  091%=      5-min Rain = 0
KMC1 151228Z 28004KT 01/00 A3019 RMK A01 T001200-0  RH  091%=      5-min Rain = 0
KMC1 151229Z 27004KT 01/00 A3019 RMK A01 T00130000  RH  092%=      5-min Rain = 0
KMC1 151230Z 28005KT 01/00 A3019 RMK A01 T00120000  RH  091%=      5-min Rain = 0
KMC1 151231Z 28005KT 01/00 A3019 RMK A01 T00120000  RH  091%=      5-min Rain = 0
KMC1 151232Z 28005KT 01/00 A3019 RMK A01 T00130000  RH  091%=      5-min Rain = 0
KMC1 151233Z 28005KT 01/00 A3019 RMK A01 T00120000  RH  092%=      5-min Rain = 0
KMC1 151234Z 27004KT 01/00 A3019 RMK A01 T00120000  RH  091%=      5-min Rain = 0
KMC1 151235Z 28005KT 01/00 A3019 RMK A01 T001200-0  RH  091%=      5-min Rain = 0
KMC1 151236Z 27005KT 01/00 A3019 RMK A01 T00130000  RH  091%=      5-min Rain = 0
KMC1 151237Z 28005KT 01/00 A3019 RMK A01 T00120000  RH  091%=      5-min Rain = 0
KMC1 151238Z 28005KT 01/00 A3019 RMK A01 T00130000  RH  091%=      5-min Rain = 0
KMC1 151239Z 27004KT 01/00 A302 RMK A01 T00130000  RH  091%=      5-min Rain = 0
KMC1 151240Z 28004KT 01/00 A302 RMK A01 T001300-0  RH  091%=      5-min Rain = 0
KMC1 151241Z 28005KT 01/00 A302 RMK A01 T00130000  RH  091%=      5-min Rain = 0
KMC1 151242Z 28006KT 01/00 A302 RMK A01 T00120000  RH  092%=      5-min Rain = 0
KMC1 151243Z 28006KT 01/00 A302 RMK A01 T00120000  RH  092%=      5-min Rain = 0
KMC1 151244Z 28006KT 01/00 A302 RMK A01 T00120000  RH  092%=      5-min Rain = 0
KMC1 151245Z 28005KT 01/00 A302 RMK A01 T00130000  RH  092%=      5-min Rain = 0
KMC1 151246Z 28005KT 01/00 A302 RMK A01 T00130000  RH  092%=      5-min Rain = 0
KMC1 151247Z 28005KT 01/00 A302 RMK A01 T00130000  RH  092%=      5-min Rain = 0
KMC1 151248Z 28005KT 01/00 A302 RMK A01 T00130000  RH  092%=      5-min Rain = 0
KMC1 151249Z 28005KT 01/00 A302 RMK A01 T00130001  RH  092%=      5-min Rain = 0
KMC1 151250Z 28005KT 01/00 A302 RMK A01 T00120000  RH  092%=      5-min Rain = 0
KMC1 151251Z 28004KT 01/00 A302 RMK A01 T001200-0  RH  092%=      5-min Rain = 0
KMC1 151252Z 28005KT 01/00 A302 RMK A01 T001200-0  RH  092%=      5-min Rain = 0
KMC1 151253Z 28004KT 01/00 A302 RMK A01 T001200-0  RH  092%=      5-min Rain = 0
KMC1 151254Z 28004KT 01/00 A302 RMK A01 T001200-0  RH  092%=      5-min Rain = 0
KMC1 151255Z 28006KT 01/M00 A302 RMK A01 T00111001  RH  092%=      5-min Rain = 0
KMC1 151256Z 28006KT 01/00 A302 RMK A01 T001100-0  RH  092%=      5-min Rain = 0
KMC1 151257Z 28006KT 01/00 A302 RMK A01 T001100-0  RH  092%=      5-min Rain = 0
KMC1 151258Z 28005KT 01/00 A302 RMK A01 T001100-0  RH  092%=      5-min Rain = 0
KMC1 151259Z 28005KT 01/00 A302 RMK A01 T00120000  RH  092%=      5-min Rain = 0
KMC1 151300Z 28005KT 01/00 A302 RMK A01 T001200-0  RH  092%=      5-min Rain = 0
KMC1 151301Z 28005KT 01/00 A302 RMK A01 T001200-0  RH  092%=      5-min Rain = 0
KMC1 151302Z 28005KT 01/M00 A302 RMK A01 T00121001  RH  092%=      5-min Rain = 0
KMC1 151303Z 27004KT 01/00 A302 RMK A01 T001200-0  RH  092%=      5-min Rain = 0
KMC1 151304Z 28006KT 01/M00 A302 RMK A01 T00111001  RH  092%=      5-min Rain = 0
KMC1 151305Z 28006KT 01/M00 A302 RMK A01 T00111001  RH  092%=      5-min Rain = 0
KMC1 151306Z 28006KT 01/M00 A302 RMK A01 T00111001  RH  092%=      5-min Rain = 0
KMC1 151307Z 28006KT 01/M00 A302 RMK A01 T00111001  RH  092%=      5-min Rain = 0
KMC1 151308Z 28005KT 01/M00 A302 RMK A01 T00111001  RH  092%=      5-min Rain = 0
KMC1 151309Z 28004KT 01/M00 A302 RMK A01 T00111001  RH  092%=      5-min Rain = 0
KMC1 151310Z 27005KT 01/M00 A302 RMK A01 T00121001  RH  092%=      5-min Rain = 0
KMC1 151311Z 27006KT 01/M00 A302 RMK A01 T00111001  RH  091%=      5-min Rain = 0
KMC1 151312Z 27005KT 01/M00 A302 RMK A01 T00111001  RH  091%=      5-min Rain = 0
KMC1 151313Z 27005KT 01/M00 A302 RMK A01 T00111001  RH  092%=      5-min Rain = 0
KMC1 151314Z 27005KT 01/M00 A3021 RMK A01 T00111001  RH  092%=      5-min Rain = 0
KMC1 151315Z 27006KT 01/M00 A3021 RMK A01 T00111001  RH  091%=      5-min Rain = 0
KMC1 151316Z 28005KT 01/M00 A3021 RMK A01 T00111001  RH  091%=      5-min Rain = 0
KMC1 151317Z 27004KT 01/M00 A3021 RMK A01 T00111001  RH  091%=      5-min Rain = 0
KMC1 151318Z 27005KT 01/M00 A3021 RMK A01 T00111001  RH  091%=      5-min Rain = 0
KMC1 151319Z 27005KT 01/M00 A3021 RMK A01 T00111002  RH  091%=      5-min Rain = 0
KMC1 151320Z 28004KT 01/M00 A3021 RMK A01 T00111002  RH  092%=      5-min Rain = 0
KMC1 151321Z 28004KT 01/M00 A3021 RMK A01 T00101002  RH  092%=      5-min Rain = 0
KMC1 151322Z 27003KT 01/M00 A3021 RMK A01 T00101002  RH  092%=      5-min Rain = 0
KMC1 151323Z 27004KT 01/M00 A3021 RMK A01 T00101002  RH  092%=      5-min Rain = 0
KMC1 151324Z 27004KT 01/M00 A3021 RMK A01 T00101002  RH  092%=      5-min Rain = 0
KMC1 151325Z 27003KT 01/M00 A3021 RMK A01 T00101002  RH  092%=      5-min Rain = 0
KMC1 151326Z 27003KT 01/M00 A3021 RMK A01 T00101002  RH  092%=      5-min Rain = 0
KMC1 151327Z 26003KT 01/M00 A3021 RMK A01 T00101002  RH  092%=      5-min Rain = 0
KMC1 151328Z 26003KT 01/M00 A3021 RMK A01 T00091003  RH  092%=      5-min Rain = 0
KMC1 151329Z 26003KT 01/M00 A3021 RMK A01 T00091003  RH  092%=      5-min Rain = 0
KMC1 151330Z 25003KT 01/M00 A3021 RMK A01 T00091003  RH  092%=      5-min Rain = 0
KMC1 151331Z 26003KT 01/M00 A3021 RMK A01 T00091003  RH  092%=      5-min Rain = 0
KMC1 151332Z 26003KT 01/M00 A3021 RMK A01 T00081003  RH  092%=      5-min Rain = 0
KMC1 151333Z 26003KT 01/M00 A3021 RMK A01 T00081003  RH  092%=      5-min Rain = 0
KMC1 151334Z 26003KT 01/M00 A3021 RMK A01 T00081003  RH  092%=      5-min Rain = 0
KMC1 151335Z 26003KT 01/M00 A3021 RMK A01 T00081003  RH  092%=      5-min Rain = 0
KMC1 151336Z 26003KT 01/M00 A3021 RMK A01 T00081002  RH  092%=      5-min Rain = 0
KMC1 151337Z 26003KT 01/M00 A3021 RMK A01 T00081002  RH  093%=      5-min Rain = 0
KMC1 151338Z 26002KT 01/M00 A3021 RMK A01 T00081003  RH  093%=      5-min Rain = 0
KMC1 151339Z 26003KT 01/M00 A3021 RMK A01 T00081003  RH  093%=      5-min Rain = 0
KMC1 151340Z 25002KT 01/M00 A3021 RMK A01 T00081002  RH  093%=      5-min Rain = 0
KMC1 151341Z 26002KT 01/M00 A3021 RMK A01 T00081002  RH  093%=      5-min Rain = 0
KMC1 151342Z 25002KT 01/M00 A3021 RMK A01 T00091002  RH  093%=      5-min Rain = 0
KMC1 151343Z 25002KT 01/M00 A3021 RMK A01 T00081003  RH  092%=      5-min Rain = 0
KMC1 151344Z 26003KT 01/M00 A3021 RMK A01 T00081002  RH  092%=      5-min Rain = 0
KMC1 151345Z 26003KT 01/M00 A3021 RMK A01 T00091002  RH  093%=      5-min Rain = 0
KMC1 151346Z 24003KT 01/M00 A3021 RMK A01 T00091002  RH  093%=      5-min Rain = 0
KMC1 151347Z 25002KT 01/M00 A3021 RMK A01 T00091002  RH  093%=      5-min Rain = 0
KMC1 151348Z 25002KT 01/M00 A3022 RMK A01 T00091002  RH  092%=      5-min Rain = 0
KMC1 151349Z 25002KT 01/M00 A3022 RMK A01 T00101001  RH  092%=      5-min Rain = 0
KMC1 151350Z 25002KT 01/M00 A3022 RMK A01 T00101001  RH  092%=      5-min Rain = 0
KMC1 151351Z 25001KT 01/M00 A3022 RMK A01 T00101001  RH  092%=      5-min Rain = 0
KMC1 151352Z 25002KT 01/M00 A3022 RMK A01 T00101001  RH  092%=      5-min Rain = 0
KMC1 151353Z 24002KT 01/M00 A3022 RMK A01 T00111001  RH  092%=      5-min Rain = 0
KMC1 151354Z 24002KT 01/M00 A3022 RMK A01 T00111001  RH  092%=      5-min Rain = 0
KMC1 151355Z 22002KT 01/00 A3022 RMK A01 T001200-0  RH  092%=      5-min Rain = 0
KMC1 151356Z 25001KT 01/M00 A3022 RMK A01 T00121001  RH  091%=      5-min Rain = 0
KMC1 151357Z 24002KT 01/M00 A3022 RMK A01 T00121001  RH  091%=      5-min Rain = 0
KMC1 151358Z 23002KT 01/00 A3022 RMK A01 T001300-0  RH  091%=      5-min Rain = 0
KMC1 151359Z 23002KT 01/00 A3022 RMK A01 T001300-0  RH  091%=      5-min Rain = 0
KMC1 151400Z 23002KT 01/00 A3022 RMK A01 T001400-0  RH  091%=      5-min Rain = 0
KMC1 151401Z 22002KT 01/00 A3022 RMK A01 T00140000  RH  091%=      5-min Rain = 0
KMC1 151402Z 23002KT 02/00 A3022 RMK A01 T00150001  RH  090%=      5-min Rain = 0
KMC1 151403Z 24002KT 02/00 A3022 RMK A01 T00160001  RH  090%=      5-min Rain = 0
KMC1 151404Z 23002KT 02/00 A3022 RMK A01 T00170001  RH  090%=      5-min Rain = 0
KMC1 151405Z 22003KT 02/00 A3022 RMK A01 T00170001  RH  089%=      5-min Rain = 0
KMC1 151406Z 23003KT 02/00 A3022 RMK A01 T00180002  RH  089%=      5-min Rain = 0
KMC1 151407Z 23003KT 02/00 A3022 RMK A01 T00190002  RH  088%=      5-min Rain = 0
KMC1 151408Z 24003KT 02/00 A3022 RMK A01 T00200002  RH  088%=      5-min Rain = 0
KMC1 151409Z 23003KT 02/00 A3023 RMK A01 T00200002  RH  088%=      5-min Rain = 0
KMC1 151410Z 23003KT 02/00 A3022 RMK A01 T00210002  RH  087%=      5-min Rain = 0
KMC1 151411Z 24002KT 02/00 A3022 RMK A01 T00220002  RH  087%=      5-min Rain = 0
KMC1 151412Z 23002KT 02/00 A3022 RMK A01 T00230003  RH  087%=      5-min Rain = 0
KMC1 151413Z 24003KT 02/00 A3023 RMK A01 T00230004  RH  087%=      5-min Rain = 0
KMC1 151414Z 25003KT 02/00 A3023 RMK A01 T00240004  RH  087%=      5-min Rain = 0
KMC1 151415Z 25003KT 03/00 A3023 RMK A01 T00250004  RH  086%=      5-min Rain = 0
KMC1 151416Z 24003KT 03/00 A3023 RMK A01 T00260004  RH  085%=      5-min Rain = 0
KMC1 151417Z 24003KT 03/00 A3023 RMK A01 T00270004  RH  085%=      5-min Rain = 0
KMC1 151418Z 26003KT 03/01 A3023 RMK A01 T00270005  RH  085%=      5-min Rain = 0
KMC1 151419Z 25003KT 03/01 A3023 RMK A01 T00290006  RH  085%=      5-min Rain = 0
KMC1 151420Z 24002KT 03/01 A3023 RMK A01 T00290005  RH  084%=      5-min Rain = 0
KMC1 151421Z 23002KT 03/01 A3023 RMK A01 T00300005  RH  084%=      5-min Rain = 0
KMC1 151422Z 25003KT 03/01 A3023 RMK A01 T00310005  RH  083%=      5-min Rain = 0
KMC1 151423Z 25002KT 03/01 A3023 RMK A01 T00320005  RH  082%=      5-min Rain = 0
KMC1 151424Z 26004KT 03/01 A3023 RMK A01 T00320005  RH  082%=      5-min Rain = 0
KMC1 151425Z 26003KT 03/01 A3023 RMK A01 T00320005  RH  082%=      5-min Rain = 0
KMC1 151426Z 26003KT 03/00 A3023 RMK A01 T00330004  RH  082%=      5-min Rain = 0
KMC1 151427Z 27004KT 03/01 A3023 RMK A01 T00340005  RH  082%=      5-min Rain = 0
KMC1 151428Z 27003KT 03/01 A3023 RMK A01 T00340005  RH  081%=      5-min Rain = 0
KMC1 151429Z 27003KT 03/01 A3023 RMK A01 T00340005  RH  081%=      5-min Rain = 0
KMC1 151430Z 27003KT 04/01 A3023 RMK A01 T00350006  RH  081%=      5-min Rain = 0
KMC1 151431Z 28003KT 04/01 A3023 RMK A01 T00360006  RH  081%=      5-min Rain = 0
KMC1 151432Z 27003KT 04/01 A3023 RMK A01 T00360005  RH  080%=      5-min Rain = 0
KMC1 151433Z 28004KT 04/01 A3023 RMK A01 T00360005  RH  080%=      5-min Rain = 0
KMC1 151434Z 28003KT 04/01 A3023 RMK A01 T00370006  RH  080%=      5-min Rain = 0
KMC1 151435Z 26002KT 04/01 A3023 RMK A01 T00380006  RH  080%=      5-min Rain = 0
KMC1 151436Z 28003KT 04/01 A3023 RMK A01 T00390007  RH  080%=      5-min Rain = 0
KMC1 151437Z 27004KT 04/01 A3023 RMK A01 T00390006  RH  079%=      5-min Rain = 0
KMC1 151438Z 26004KT 04/01 A3023 RMK A01 T00400008  RH  079%=      5-min Rain = 0
KMC1 151439Z 28004KT 04/01 A3023 RMK A01 T00410006  RH  078%=      5-min Rain = 0
KMC1 151440Z 28003KT 04/01 A3023 RMK A01 T00410008  RH  079%=      5-min Rain = 0
KMC1 151441Z 28004KT 04/01 A3023 RMK A01 T00420009  RH  079%=      5-min Rain = 0
KMC1 151442Z 28005KT 04/01 A3024 RMK A01 T00430009  RH  078%=      5-min Rain = 0
KMC1 151443Z 28003KT 04/01 A3024 RMK A01 T00440008  RH  077%=      5-min Rain = 0
KMC1 151444Z 28004KT 05/01 A3024 RMK A01 T00450010  RH  078%=      5-min Rain = 0
KMC1 151445Z 29004KT 05/01 A3024 RMK A01 T00460011  RH  078%=      5-min Rain = 0
KMC1 151446Z 29007KT 05/01 A3024 RMK A01 T00470010  RH  077%=      5-min Rain = 0
KMC1 151447Z 30005KT 05/01 A3024 RMK A01 T00490011  RH  077%=      5-min Rain = 0
KMC1 151448Z 29006KT 05/01 A3024 RMK A01 T00500012  RH  076%=      5-min Rain = 0
KMC1 151449Z 30007KT 05/01 A3024 RMK A01 T00510010  RH  075%=      5-min Rain = 0
KMC1 151450Z 30006KT 05/01 A3024 RMK A01 T00520010  RH  075%=      5-min Rain = 0
KMC1 151451Z 29006KT 05/01 A3024 RMK A01 T00520010  RH  074%=      5-min Rain = 0
KMC1 151452Z 29006KT 05/01 A3024 RMK A01 T00530010  RH  074%=      5-min Rain = 0
KMC1 151453Z 29006KT 05/01 A3024 RMK A01 T00540010  RH  074%=      5-min Rain = 0
KMC1 151454Z 28007KT 05/01 A3024 RMK A01 T00540009  RH  073%=      5-min Rain = 0
KMC1 151455Z 29006KT 05/01 A3024 RMK A01 T00540008  RH  072%=      5-min Rain = 0
KMC1 151456Z 29005KT 05/01 A3024 RMK A01 T00540008  RH  072%=      5-min Rain = 0
KMC1 151457Z 29006KT 06/01 A3024 RMK A01 T00550010  RH  073%=      5-min Rain = 0
KMC1 151458Z 30006KT 06/01 A3024 RMK A01 T00560011  RH  072%=      5-min Rain = 0
KMC1 151459Z 29007KT 06/01 A3025 RMK A01 T00570010  RH  072%=      5-min Rain = 0
KMC1 151500Z 29006KT 06/01 A3025 RMK A01 T00570009  RH  071%=      5-min Rain = 0
KMC1 151501Z 29006KT 06/01 A3025 RMK A01 T00570009  RH  071%=      5-min Rain = 0
KMC1 151502Z 29007KT 06/01 A3025 RMK A01 T00580009  RH  071%=      5-min Rain = 0
KMC1 151503Z 29008KT 06/01 A3025 RMK A01 T00590010  RH  071%=      5-min Rain = 0
KMC1 151504Z 29006KT 06/01 A3025 RMK A01 T00590008  RH  070%=      5-min Rain = 0
KMC1 151505Z 30006KT 06/01 A3025 RMK A01 T00590011  RH  071%=      5-min Rain = 0
KMC1 151506Z 28006KT 06/01 A3025 RMK A01 T00600011  RH  071%=      5-min Rain = 0
KMC1 151507Z 29004KT 06/01 A3025 RMK A01 T00610011  RH  070%=      5-min Rain = 0
KMC1 151508Z 28003KT 06/01 A3025 RMK A01 T00620011  RH  070%=      5-min Rain = 0
KMC1 151509Z 29007KT 06/01 A3025 RMK A01 T00630014  RH  071%=      5-min Rain = 0
KMC1 151510Z 30007KT 07/01 A3025 RMK A01 T00650013  RH  070%=      5-min Rain = 0
KMC1 151511Z 29006KT 07/01 A3025 RMK A01 T00650012  RH  069%=      5-min Rain = 0
KMC1 151512Z 29005KT 07/01 A3025 RMK A01 T00660012  RH  068%=      5-min Rain = 0
KMC1 151513Z 29005KT 07/01 A3025 RMK A01 T00670014  RH  069%=      5-min Rain = 0
KMC1 151514Z 29007KT 07/01 A3025 RMK A01 T00670013  RH  068%=      5-min Rain = 0
KMC1 151515Z 31008KT 07/01 A3025 RMK A01 T00680010  RH  067%=      5-min Rain = 0
KMC1 151516Z 31006KT 07/01 A3025 RMK A01 T00670008  RH  066%=      5-min Rain = 0
KMC1 151517Z 30007KT 07/01 A3025 RMK A01 T00670012  RH  068%=      5-min Rain = 0
KMC1 151518Z 31006KT 07/01 A3025 RMK A01 T00680012  RH  067%=      5-min Rain = 0
KMC1 151519Z 30005KT 07/01 A3025 RMK A01 T00690010  RH  066%=      5-min Rain = 0
KMC1 151520Z 30005KT 07/01 A3025 RMK A01 T00690013  RH  067%=      5-min Rain = 0
KMC1 151521Z 30006KT 07/01 A3025 RMK A01 T00710012  RH  066%=      5-min Rain = 0
KMC1 151522Z 29004KT 07/01 A3025 RMK A01 T00710011  RH  066%=      5-min Rain = 0
KMC1 151523Z 31003KT 07/01 A3025 RMK A01 T00720013  RH  066%=      5-min Rain = 0
KMC1 151524Z 29006KT 07/01 A3025 RMK A01 T00740014  RH  066%=      5-min Rain = 0
KMC1 151525Z 29006KT 07/01 A3025 RMK A01 T00740010  RH  064%=      5-min Rain = 0
KMC1 151526Z 29005KT 07/01 A3025 RMK A01 T00740011  RH  064%=      5-min Rain = 0
KMC1 151527Z 32006KT 07/01 A3025 RMK A01 T00740013  RH  065%=      5-min Rain = 0
KMC1 151528Z 30005KT 08/01 A3025 RMK A01 T00750008  RH  062%=      5-min Rain = 0
KMC1 151529Z 31005KT 08/01 A3025 RMK A01 T00750010  RH  063%=      5-min Rain = 0
KMC1 151530Z 33005KT 08/01 A3025 RMK A01 T00760011  RH  063%=      5-min Rain = 0
KMC1 151531Z 30005KT 08/01 A3025 RMK A01 T00770006  RH  061%=      5-min Rain = 0
KMC1 151532Z 31005KT 08/01 A3025 RMK A01 T00760008  RH  062%=      5-min Rain = 0
KMC1 151533Z 32007KT 08/01 A3025 RMK A01 T00770009  RH  062%=      5-min Rain = 0
KMC1 151534Z 30007KT 08/01 A3025 RMK A01 T00770009  RH  062%=      5-min Rain = 0
KMC1 151535Z 31005KT 08/01 A3025 RMK A01 T00780009  RH  062%=      5-min Rain = 0
KMC1 151536Z 30009KT 08/01 A3026 RMK A01 T00790012  RH  063%=      5-min Rain = 0
KMC1 151537Z 32007KT 08/01 A3026 RMK A01 T00800011  RH  062%=      5-min Rain = 0
KMC1 151538Z 32008KT 08/01 A3026 RMK A01 T00810008  RH  060%=      5-min Rain = 0
KMC1 151539Z 31009KT 08/00 A3026 RMK A01 T00810003  RH  058%=      5-min Rain = 0
KMC1 151540Z 33008KT 08/00 A3026 RMK A01 T00810003  RH  058%=      5-min Rain = 0
KMC1 151541Z 33009KT 08/00 A3026 RMK A01 T00810004  RH  058%=      5-min Rain = 0
KMC1 151542Z 32005KT 08/00 A3026 RMK A01 T00810001  RH  057%=      5-min Rain = 0
KMC1 151543Z 33006KT 08/00 A3026 RMK A01 T00820004  RH  058%=      5-min Rain = 0
KMC1 151544Z 31004KT 08/01 A3026 RMK A01 T00830007  RH  059%=      5-min Rain = 0
KMC1 151545Z 32008KT 09/01 A3026 RMK A01 T00850008  RH  059%=      5-min Rain = 0
KMC1 151546Z 31005KT 09/00 A3026 RMK A01 T00850004  RH  057%=      5-min Rain = 0
KMC1 151547Z 32007KT 09/01 A3026 RMK A01 T00850007  RH  058%=      5-min Rain = 0
KMC1 151548Z 30004KT 09/01 A3026 RMK A01 T00860010  RH  059%=      5-min Rain = 0
KMC1 151549Z 30004KT 09/02 A3026 RMK A01 T00880015  RH  060%=      5-min Rain = 0
KMC1 151550Z 30004KT 09/01 A3026 RMK A01 T00900013  RH  058%=      5-min Rain = 0
KMC1 151551Z 32006KT 09/01 A3026 RMK A01 T00910008  RH  056%=      5-min Rain = 0
KMC1 151552Z 32004KT 09/01 A3026 RMK A01 T00900005  RH  055%=      5-min Rain = 0
KMC1 151553Z 31003KT 09/01 A3026 RMK A01 T00900009  RH  057%=      5-min Rain = 0
KMC1 151554Z 31006KT 09/01 A3026 RMK A01 T00900012  RH  058%=      5-min Rain = 0
KMC1 151555Z 32005KT 09/01 A3026 RMK A01 T00920010  RH  057%=      5-min Rain = 0
KMC1 151556Z 34007KT 09/01 A3026 RMK A01 T00920005  RH  054%=      5-min Rain = 0
KMC1 151557Z 33005KT 09/00 A3026 RMK A01 T00910002  RH  053%=      5-min Rain = 0
KMC1 151558Z 34006KT 09/00 A3026 RMK A01 T00910003  RH  054%=      5-min Rain = 0
KMC1 151559Z 32006KT 09/01 A3026 RMK A01 T00910005  RH  055%=      5-min Rain = 0
KMC1 151600Z 31007KT 09/01 A3026 RMK A01 T00930006  RH  054%=      5-min Rain = 0
KMC1 151601Z 30009KT 09/01 A3026 RMK A01 T00930008  RH  055%=      5-min Rain = 0
KMC1 151602Z 31007KT 10/01 A3026 RMK A01 T00950008  RH  055%=      5-min Rain = 0
KMC1 151603Z 32008KT 10/00 A3026 RMK A01 T00950003  RH  053%=      5-min Rain = 0
KMC1 151604Z 32007KT 09/00 A3026 RMK A01 T00940002  RH  053%=      5-min Rain = 0
KMC1 151605Z 32007KT 09/M00 A3026 RMK A01 T00941001  RH  052%=      5-min Rain = 0
KMC1 151606Z 33006KT 09/00 A3026 RMK A01 T009400-0  RH  052%=      5-min Rain = 0
KMC1 151607Z 33008KT 09/00 A3026 RMK A01 T00940003  RH  053%=      5-min Rain = 0
KMC1 151608Z 32007KT 09/00 A3026 RMK A01 T00940003  RH  053%=      5-min Rain = 0
KMC1 151609Z 31009KT 10/00 A3026 RMK A01 T00950003  RH  053%=      5-min Rain = 0
KMC1 151610Z 32006KT 10/00 A3026 RMK A01 T00950004  RH  053%=      5-min Rain = 0
KMC1 151611Z 32005KT 10/01 A3026 RMK A01 T00970007  RH  053%=      5-min Rain = 0
KMC1 151612Z 33007KT 10/00 A3026 RMK A01 T00970002  RH  051%=      5-min Rain = 0
KMC1 151613Z 33006KT 10/00 A3026 RMK A01 T00970003  RH  052%=      5-min Rain = 0
KMC1 151614Z 34008KT 10/00 A3026 RMK A01 T009700-0  RH  051%=      5-min Rain = 0
KMC1 151615Z 32009KT 10/M00 A3026 RMK A01 T00971002  RH  050%=      5-min Rain = 0
KMC1 151616Z 30007KT 10/M00 A3026 RMK A01 T00961003  RH  050%=      5-min Rain = 0
KMC1 151617Z 31007KT 10/00 A3026 RMK A01 T00970001  RH  051%=      5-min Rain = 0
KMC1 151618Z 33006KT 10/00 A3026 RMK A01 T00980001  RH  051%=      5-min Rain = 0
KMC1 151619Z 32005KT 10/00 A3026 RMK A01 T00990000  RH  050%=      5-min Rain = 0
KMC1 151620Z 31006KT 10/00 A3026 RMK A01 T00990001  RH  050%=      5-min Rain = 0
KMC1 151621Z 32006KT 10/00 A3026 RMK A01 T01000002  RH  051%=      5-min Rain = 0
KMC1 151622Z 33006KT 10/01 A3026 RMK A01 T01020005  RH  051%=      5-min Rain = 0
KMC1 151623Z 33006KT 10/00 A3026 RMK A01 T01020002  RH  050%=      5-min Rain = 0
KMC1 151624Z 31005KT 10/01 A3026 RMK A01 T01020007  RH  052%=      5-min Rain = 0
KMC1 151625Z 30008KT 10/00 A3026 RMK A01 T01020004  RH  051%=      5-min Rain = 0
KMC1 151626Z 32004KT 10/00 A3026 RMK A01 T01020003  RH  050%=      5-min Rain = 0
KMC1 151627Z 33004KT 10/01 A3026 RMK A01 T01020008  RH  052%=      5-min Rain = 0
KMC1 151628Z 32007KT 11/01 A3026 RMK A01 T01050010  RH  052%=      5-min Rain = 0
KMC1 151629Z 31009KT 11/00 A3026 RMK A01 T01070003  RH  049%=      5-min Rain = 0
KMC1 151630Z 32008KT 11/M01 A3026 RMK A01 T01061005  RH  046%=      5-min Rain = 0
KMC1 151631Z 33010KT 10/M01 A3026 RMK A01 T01041014  RH  044%=      5-min Rain = 0
KMC1 151632Z 34006KT 10/M01 A3026 RMK A01 T01031006  RH  047%=      5-min Rain = 0
KMC1 151633Z 35009KT 10/M01 A3026 RMK A01 T01041005  RH  047%=      5-min Rain = 0
KMC1 151634Z 35010KT 10/M01 A3026 RMK A01 T01041006  RH  046%=      5-min Rain = 0
KMC1 151635Z 00009KT 10/M01 A3026 RMK A01 T01031007  RH  046%=      5-min Rain = 0
KMC1 151636Z 35010KT 10/M00 A3026 RMK A01 T01031003  RH  048%=      5-min Rain = 0
KMC1 151637Z 36010KT 10/M00 A3026 RMK A01 T01031002  RH  048%=      5-min Rain = 0
KMC1 151638Z 35008KT 10/M01 A3026 RMK A01 T01041006  RH  047%=      5-min Rain = 0
KMC1 151639Z 32008KT 10/M01 A3026 RMK A01 T01041005  RH  047%=      5-min Rain = 0
KMC1 151640Z 32006KT 11/M00 A3026 RMK A01 T01051002  RH  048%=      5-min Rain = 0
KMC1 151641Z 32005KT 11/M01 A3026 RMK A01 T01051005  RH  046%=      5-min Rain = 0
KMC1 151642Z 34006KT 11/M00 A3026 RMK A01 T01061002  RH  047%=      5-min Rain = 0
KMC1 151643Z 32005KT 11/M01 A3026 RMK A01 T01061006  RH  046%=      5-min Rain = 0
KMC1 151644Z 33006KT 11/M01 A3026 RMK A01 T01051006  RH  046%=      5-min Rain = 0
KMC1 151645Z 33006KT 11/M00 A3026 RMK A01 T01051003  RH  047%=      5-min Rain = 0
KMC1 151646Z 35007KT 11/M01 A3026 RMK A01 T01071006  RH  046%=      5-min Rain = 0
KMC1 151647Z 01008KT 11/M01 A3026 RMK A01 T01071011  RH  044%=      5-min Rain = 0
KMC1 151648Z 36008KT 11/M01 A3026 RMK A01 T01061009  RH  045%=      5-min Rain = 0
KMC1 151649Z 00008KT 11/M01 A3026 RMK A01 T01071006  RH  046%=      5-min Rain = 0
KMC1 151650Z 36008KT 11/M01 A3026 RMK A01 T01071006  RH  046%=      5-min Rain = 0
KMC1 151651Z 33009KT 11/M00 A3026 RMK A01 T01071002  RH  047%=      5-min Rain = 0
KMC1 151652Z 32008KT 11/M00 A3026 RMK A01 T01071002  RH  047%=      5-min Rain = 0
KMC1 151653Z 35005KT 11/M01 A3026 RMK A01 T01061006  RH  046%=      5-min Rain = 0
KMC1 151654Z 34008KT 11/M00 A3026 RMK A01 T01051003  RH  047%=      5-min Rain = 0
KMC1 151655Z 33009KT 11/M00 A3026 RMK A01 T01061003  RH  047%=      5-min Rain = 0
KMC1 151656Z 36009KT 11/M00 A3026 RMK A01 T01081001  RH  047%=      5-min Rain = 0
KMC1 151657Z 35008KT 11/M00 A3026 RMK A01 T01101002  RH  046%=      5-min Rain = 0
KMC1 151658Z 35010G15KT 11/M00 A3026 RMK A01 T01101003  RH  046%=      5-min Rain = 0
KMC1 151659Z 34010G15KT 11/M00 A3026 RMK A01 T01091003  RH  046%=      5-min Rain = 0
KMC1 151700Z 35010KT 11/M00 A3026 RMK A01 T01101003  RH  045%=      5-min Rain = 0
KMC1 151701Z 32006KT 11/M00 A3026 RMK A01 T01111004  RH  045%=      5-min Rain = 0
KMC1 151702Z 34004KT 11/M00 A3026 RMK A01 T01111003  RH  045%=      5-min Rain = 0
KMC1 151703Z 34006KT 11/00 A3026 RMK A01 T01130001  RH  046%=      5-min Rain = 0
KMC1 151704Z 35009KT 12/M00 A3026 RMK A01 T01151004  RH  044%=      5-min Rain = 0
KMC1 151705Z 35010KT 12/M01 A3026 RMK A01 T01151005  RH  043%=      5-min Rain = 0
KMC1 151706Z 35007KT 11/M00 A3026 RMK A01 T01141002  RH  045%=      5-min Rain = 0
KMC1 151707Z 34011KT 12/M00 A3026 RMK A01 T01151004  RH  044%=      5-min Rain = 0
KMC1 151708Z 33008KT 11/M01 A3026 RMK A01 T01141011  RH  042%=      5-min Rain = 0
KMC1 151709Z 32007KT 11/M01 A3026 RMK A01 T01121014  RH  042%=      5-min Rain = 0
KMC1 151710Z 34009KT 11/M01 A3026 RMK A01 T01111010  RH  043%=      5-min Rain = 0
KMC1 151711Z 33008KT 11/M01 A3026 RMK A01 T01111012  RH  043%=      5-min Rain = 0
KMC1 151712Z 34007KT 11/M01 A3026 RMK A01 T01111007  RH  044%=      5-min Rain = 0
KMC1 151713Z 32006KT 11/M01 A3026 RMK A01 T01111005  RH  045%=      5-min Rain = 0
KMC1 151714Z 32008KT 11/00 A3026 RMK A01 T01130000  RH  046%=      5-min Rain = 0
KMC1 151715Z 33009KT 12/M01 A3026 RMK A01 T01151005  RH  043%=      5-min Rain = 0
KMC1 151716Z 34009KT 12/M00 A3026 RMK A01 T01151004  RH  044%=      5-min Rain = 0
KMC1 151717Z 35007KT 11/M00 A3026 RMK A01 T01141004  RH  044%=      5-min Rain = 0
KMC1 151718Z 35009KT 12/M00 A3026 RMK A01 T01151003  RH  044%=      5-min Rain = 0
KMC1 151719Z 36007KT 12/M01 A3026 RMK A01 T01151005  RH  044%=      5-min Rain = 0
KMC1 151720Z 01007KT 11/M01 A3026 RMK A01 T01141006  RH  043%=      5-min Rain = 0
KMC1 151721Z 35007KT 11/M00 A3026 RMK A01 T01141003  RH  044%=      5-min Rain = 0
KMC1 151722Z 36009KT 12/00 A3026 RMK A01 T01160001  RH  045%=      5-min Rain = 0
KMC1 151723Z 00007KT 12/M01 A3026 RMK A01 T01161010  RH  042%=      5-min Rain = 0
KMC1 151724Z 00013G19KT 12/M01 A3025 RMK A01 T01161010  RH  042%=      5-min Rain = 0
KMC1 151725Z 35011KT 12/M01 A3026 RMK A01 T01151013  RH  041%=      5-min Rain = 0
KMC1 151726Z 34008KT 11/M01 A3026 RMK A01 T01141011  RH  042%=      5-min Rain = 0
KMC1 151727Z 36009KT 12/M01 A3026 RMK A01 T01151011  RH  042%=      5-min Rain = 0
KMC1 151728Z 35010KT 12/M01 A3026 RMK A01 T01171005  RH  043%=      5-min Rain = 0
KMC1 151729Z 35011KT 12/M01 A3026 RMK A01 T01171013  RH  040%=      5-min Rain = 0
KMC1 151730Z 36009KT 12/M01 A3026 RMK A01 T01161011  RH  041%=      5-min Rain = 0
KMC1 151731Z 00009KT 12/M01 A3025 RMK A01 T01161011  RH  041%=      5-min Rain = 0
KMC1 151732Z 01011KT 12/M01 A3025 RMK A01 T01171012  RH  041%=      5-min Rain = 0
KMC1 151733Z 36010KT 12/M01 A3025 RMK A01 T01161013  RH  041%=      5-min Rain = 0
KMC1 151734Z 34009KT 12/M01 A3025 RMK A01 T01161011  RH  041%=      5-min Rain = 0
KMC1 151735Z 34008KT 12/M01 A3025 RMK A01 T01171006  RH  042%=      5-min Rain = 0
KMC1 151736Z 32008KT 12/M01 A3025 RMK A01 T01191007  RH  042%=      5-min Rain = 0
KMC1 151737Z 32008KT 12/M01 A3025 RMK A01 T01201009  RH  041%=      5-min Rain = 0
KMC1 151738Z 31010G16KT 12/M01 A3025 RMK A01 T01201012  RH  040%=      5-min Rain = 0
KMC1 151739Z 33010G15KT 12/M01 A3025 RMK A01 T01201009  RH  041%=      5-min Rain = 0
KMC1 151740Z 34008KT 12/M01 A3025 RMK A01 T01221005  RH  042%=      5-min Rain = 0
KMC1 151741Z 35009KT 12/M00 A3025 RMK A01 T01241002  RH  042%=      5-min Rain = 0
KMC1 151742Z 35011KT 12/M01 A3025 RMK A01 T01241006  RH  041%=      5-min Rain = 0
KMC1 151743Z 35010KT 12/M01 A3025 RMK A01 T01221013  RH  039%=      5-min Rain = 0
KMC1 151744Z 00009KT 12/M01 A3025 RMK A01 T01191012  RH  040%=      5-min Rain = 0
KMC1 151745Z 35008KT 12/M01 A3025 RMK A01 T01191007  RH  042%=      5-min Rain = 0
KMC1 151746Z 34011KT 12/M02 A3025 RMK A01 T01191015  RH  039%=      5-min Rain = 0
KMC1 151747Z 35008KT 12/M01 A3025 RMK A01 T01191010  RH  041%=      5-min Rain = 0
KMC1 151748Z 35010KT 12/M01 A3025 RMK A01 T01211005  RH  042%=      5-min Rain = 0
KMC1 151749Z 35009KT 12/M01 A3025 RMK A01 T01211013  RH  039%=      5-min Rain = 0
KMC1 151750Z 35013KT 12/M01 A3025 RMK A01 T01211008  RH  041%=      5-min Rain = 0
KMC1 151751Z 35010KT 12/M01 A3025 RMK A01 T01221010  RH  040%=      5-min Rain = 0
KMC1 151752Z 36011KT 12/M01 A3025 RMK A01 T01221005  RH  041%=      5-min Rain = 0
KMC1 151753Z 01012KT 12/M01 A3025 RMK A01 T01231013  RH  039%=      5-min Rain = 0
KMC1 151754Z 00011KT 12/M02 A3025 RMK A01 T01191017  RH  039%=      5-min Rain = 0
KMC1 151755Z 00011KT 12/M02 A3025 RMK A01 T01181018  RH  039%=      5-min Rain = 0
KMC1 151756Z 35011KT 12/M01 A3025 RMK A01 T01181011  RH  041%=      5-min Rain = 0
KMC1 151757Z 36012KT 12/M01 A3025 RMK A01 T01181011  RH  041%=      5-min Rain = 0
KMC1 151758Z 00011KT 12/M01 A3025 RMK A01 T01191011  RH  041%=      5-min Rain = 0
KMC1 151759Z 34010KT 12/M01 A3025 RMK A01 T01191011  RH  041%=      5-min Rain = 0
KMC1 151800Z 35010G16KT 12/M01 A3025 RMK A01 T01191006  RH  042%=      5-min Rain = 0
KMC1 151801Z 34012KT 12/M01 A3025 RMK A01 T01211007  RH  041%=      5-min Rain = 0
KMC1 151802Z 34012KT 12/M02 A3025 RMK A01 T01221016  RH  038%=      5-min Rain = 0
KMC1 151803Z 33012KT 12/M02 A3025 RMK A01 T01211016  RH  038%=      5-min Rain = 0
KMC1 151804Z 35010KT 12/M02 A3025 RMK A01 T01201017  RH  038%=      5-min Rain = 0
KMC1 151805Z 35010KT 12/M01 A3025 RMK A01 T01201010  RH  040%=      5-min Rain = 0
KMC1 151806Z 35012KT 12/M01 A3025 RMK A01 T01221011  RH  040%=      5-min Rain = 0
KMC1 151807Z 35013G18KT 12/M02 A3025 RMK A01 T01211015  RH  039%=      5-min Rain = 0
KMC1 151808Z 35013KT 12/M02 A3025 RMK A01 T01191015  RH  039%=      5-min Rain = 0
KMC1 151809Z 35012KT 12/M01 A3025 RMK A01 T01201009  RH  041%=      5-min Rain = 0
KMC1 151810Z 36010KT 12/M01 A3025 RMK A01 T01211008  RH  041%=      5-min Rain = 0
KMC1 151811Z 36010KT 12/M01 A3025 RMK A01 T01201008  RH  041%=      5-min Rain = 0
KMC1 151812Z 35011KT 12/M01 A3025 RMK A01 T01191008  RH  041%=      5-min Rain = 0
KMC1 151813Z 35011KT 12/M01 A3025 RMK A01 T01201005  RH  042%=      5-min Rain = 0
KMC1 151814Z 35014G19KT 12/M01 A3025 RMK A01 T01221012  RH  040%=      5-min Rain = 0
KMC1 151815Z 35013KT 12/M01 A3025 RMK A01 T01211014  RH  039%=      5-min Rain = 0
KMC1 151816Z 35014G19KT 12/M01 A3025 RMK A01 T01211014  RH  039%=      5-min Rain = 0
KMC1 151817Z 34010G17KT 12/M01 A3025 RMK A01 T01211013  RH  039%=      5-min Rain = 0
KMC1 151818Z 34012KT 12/M01 A3025 RMK A01 T01231009  RH  040%=      5-min Rain = 0
KMC1 151819Z 34010KT 12/M02 A3025 RMK A01 T01231016  RH  038%=      5-min Rain = 0
KMC1 151820Z 32012G17KT 12/M02 A3025 RMK A01 T01211017  RH  038%=      5-min Rain = 0
KMC1 151821Z 34013KT 12/M02 A3025 RMK A01 T01201016  RH  039%=      5-min Rain = 0
KMC1 151822Z 33013KT 12/M01 A3025 RMK A01 T01201013  RH  040%=      5-min Rain = 0
KMC1 151823Z 34010KT 12/M01 A3025 RMK A01 T01191014  RH  039%=      5-min Rain = 0
KMC1 151824Z 35010G15KT 12/M01 A3024 RMK A01 T01191009  RH  041%=      5-min Rain = 0
KMC1 151825Z 00011KT 12/M00 A3024 RMK A01 T01211003  RH  042%=      5-min Rain = 0
KMC1 151826Z 34011KT 12/M00 A3024 RMK A01 T01211001  RH  043%=      5-min Rain = 0
KMC1 151827Z 33011KT 12/M00 A3025 RMK A01 T01231001  RH  042%=      5-min Rain = 0
KMC1 151828Z 34011KT 12/M01 A3024 RMK A01 T01231008  RH  040%=      5-min Rain = 0
KMC1 151829Z 34010KT 12/M01 A3024 RMK A01 T01211008  RH  041%=      5-min Rain = 0
KMC1 151830Z 33011KT 12/M00 A3024 RMK A01 T01201004  RH  042%=      5-min Rain = 0
KMC1 151831Z 33009KT 12/M01 A3024 RMK A01 T01201007  RH  041%=      5-min Rain = 0
KMC1 151832Z 33008KT 12/M00 A3024 RMK A01 T01201004  RH  042%=      5-min Rain = 0
KMC1 151833Z 35007KT 12/00 A3024 RMK A01 T01210000  RH  043%=      5-min Rain = 0
KMC1 151834Z 34014KT 12/M01 A3024 RMK A01 T01221009  RH  040%=      5-min Rain = 0
KMC1 151835Z 34009G14KT 12/M02 A3024 RMK A01 T01201019  RH  038%=      5-min Rain = 0
KMC1 151836Z 35015KT 12/M01 A3024 RMK A01 T01211008  RH  041%=      5-min Rain = 0
KMC1 151837Z 35014KT 12/M02 A3024 RMK A01 T01221015  RH  039%=      5-min Rain = 0
KMC1 151838Z 00015G21KT 12/M02 A3024 RMK A01 T01211015  RH  039%=      5-min Rain = 0
KMC1 151839Z 35015KT 12/M01 A3024 RMK A01 T01211011  RH  040%=      5-min Rain = 0
KMC1 151840Z 35013KT 12/M01 A3024 RMK A01 T01211009  RH  041%=      5-min Rain = 0
KMC1 151841Z 35014KT 12/M01 A3024 RMK A01 T01211010  RH  040%=      5-min Rain = 0
KMC1 151842Z 33010KT 12/M01 A3024 RMK A01 T01221014  RH  039%=      5-min Rain = 0
KMC1 151843Z 33008KT 12/M02 A3024 RMK A01 T01211016  RH  039%=      5-min Rain = 0
KMC1 151844Z 30009KT 12/M01 A3024 RMK A01 T01211011  RH  040%=      5-min Rain = 0
KMC1 151845Z 33008KT 12/M01 A3024 RMK A01 T01241006  RH  041%=      5-min Rain = 0
KMC1 151846Z 34010KT 13/M01 A3023 RMK A01 T01271009  RH  039%=      5-min Rain = 0
KMC1 151847Z 35010KT 13/M01 A3024 RMK A01 T01271007  RH  039%=      5-min Rain = 0
KMC1 151848Z 34009G14KT 13/M01 A3023 RMK A01 T01271008  RH  039%=      5-min Rain = 0
KMC1 151849Z 34014KT 13/M02 A3023 RMK A01 T01271016  RH  037%=      5-min Rain = 0
KMC1 151850Z 34012KT 13/M02 A3023 RMK A01 T01251023  RH  036%=      5-min Rain = 0
KMC1 151851Z 33011KT 12/M02 A3023 RMK A01 T01231020  RH  037%=      5-min Rain = 0
KMC1 151852Z 33011KT 12/M02 A3023 RMK A01 T01221023  RH  037%=      5-min Rain = 0
KMC1 151853Z 32007KT 12/M02 A3023 RMK A01 T01211016  RH  039%=      5-min Rain = 0
KMC1 151854Z 33010KT 12/M01 A3023 RMK A01 T01241010  RH  039%=      5-min Rain = 0
KMC1 151855Z 34010KT 12/M02 A3023 RMK A01 T01241015  RH  038%=      5-min Rain = 0
KMC1 151856Z 35009KT 12/M01 A3023 RMK A01 T01241011  RH  039%=      5-min Rain = 0
KMC1 151857Z 35012KT 13/M01 A3023 RMK A01 T01251010  RH  039%=      5-min Rain = 0
KMC1 151858Z 35009KT 13/M02 A3023 RMK A01 T01251016  RH  038%=      5-min Rain = 0
KMC1 151859Z 35012KT 13/M01 A3023 RMK A01 T01251012  RH  039%=      5-min Rain = 0
KMC1 151900Z 35011KT 13/M01 A3023 RMK A01 T01251014  RH  038%=      5-min Rain = 0
KMC1 151901Z 33009KT 12/M01 A3023 RMK A01 T01241012  RH  039%=      5-min Rain = 0
KMC1 151902Z 34010KT 13/M02 A3023 RMK A01 T01251017  RH  037%=      5-min Rain = 0
KMC1 151903Z 33011KT 12/M01 A3023 RMK A01 T01241009  RH  040%=      5-min Rain = 0
KMC1 151904Z 33013KT 13/M01 A3023 RMK A01 T01251012  RH  039%=      5-min Rain = 0
KMC1 151905Z 32010KT 12/M01 A3023 RMK A01 T01231014  RH  038%=      5-min Rain = 0
KMC1 151906Z 33011KT 12/M01 A3022 RMK A01 T01231011  RH  039%=      5-min Rain = 0
KMC1 151907Z 34010KT 13/M01 A3022 RMK A01 T01251009  RH  040%=      5-min Rain = 0
KMC1 151908Z 34009KT 13/M01 A3022 RMK A01 T01271009  RH  039%=      5-min Rain = 0
KMC1 151909Z 33011KT 13/M01 A3022 RMK A01 T01291013  RH  037%=      5-min Rain = 0
KMC1 151910Z 35010KT 13/M01 A3022 RMK A01 T01291009  RH  039%=      5-min Rain = 0
KMC1 151911Z 01010KT 13/M01 A3022 RMK A01 T01271006  RH  040%=      5-min Rain = 0
KMC1 151912Z 36010KT 13/M01 A3022 RMK A01 T01251013  RH  038%=      5-min Rain = 0
KMC1 151913Z 35008KT 12/M01 A3022 RMK A01 T01231011  RH  039%=      5-min Rain = 0
KMC1 151914Z 35011G17KT 13/M00 A3022 RMK A01 T01251003  RH  041%=      5-min Rain = 0
KMC1 151915Z 35014KT 13/M01 A3022 RMK A01 T01261012  RH  038%=      5-min Rain = 0
KMC1 151916Z 34012KT 12/M01 A3022 RMK A01 T01241014  RH  038%=      5-min Rain = 0
KMC1 151917Z 36013KT 12/M02 A3022 RMK A01 T01231015  RH  038%=      5-min Rain = 0
KMC1 151918Z 36010KT 12/M01 A3022 RMK A01 T01221013  RH  039%=      5-min Rain = 0
KMC1 151919Z 36007KT 12/M02 A3022 RMK A01 T01221016  RH  038%=      5-min Rain = 0
KMC1 151920Z 34010KT 12/M01 A3022 RMK A01 T01231010  RH  040%=      5-min Rain = 0
KMC1 151921Z 34009KT 13/M02 A3022 RMK A01 T01261015  RH  038%=      5-min Rain = 0
KMC1 151922Z 33007KT 13/M02 A3022 RMK A01 T01261021  RH  036%=      5-min Rain = 0
KMC1 151923Z 33009KT 13/M02 A3022 RMK A01 T01251021  RH  036%=      5-min Rain = 0
KMC1 151924Z 33009KT 12/M02 A3022 RMK A01 T01241020  RH  037%=      5-min Rain = 0
KMC1 151925Z 36007KT 13/M01 A3022 RMK A01 T01261007  RH  040%=      5-min Rain = 0
KMC1 151926Z 01009KT 13/M01 A3022 RMK A01 T01281005  RH  040%=      5-min Rain = 0
KMC1 151927Z 01010KT 13/M00 A3022 RMK A01 T01301001  RH  041%=      5-min Rain = 0
KMC1 151928Z 01007KT 13/M01 A3021 RMK A01 T01291010  RH  038%=      5-min Rain = 0
KMC1 151929Z 01007KT 13/M01 A3021 RMK A01 T01271010  RH  039%=      5-min Rain = 0
KMC1 151930Z 33012G18KT 13/M01 A3021 RMK A01 T01271009  RH  039%=      5-min Rain = 0
KMC1 151931Z 33012KT 13/M02 A3021 RMK A01 T01281021  RH  036%=      5-min Rain = 0
KMC1 151932Z 34010KT 13/M03 A3021 RMK A01 T01251025  RH  035%=      5-min Rain = 0
KMC1 151933Z 33009KT 12/M02 A3021 RMK A01 T01241019  RH  037%=      5-min Rain = 0
KMC1 151934Z 32008KT 12/M02 A3021 RMK A01 T01241017  RH  037%=      5-min Rain = 0
KMC1 151935Z 31009KT 13/M01 A3021 RMK A01 T01251013  RH  038%=      5-min Rain = 0
KMC1 151936Z 33007KT 13/M01 A3021 RMK A01 T01261014  RH  038%=      5-min Rain = 0
KMC1 151937Z 33007KT 13/M01 A3021 RMK A01 T01261011  RH  039%=      5-min Rain = 0
KMC1 151938Z 34010G16KT 13/M01 A3021 RMK A01 T01261010  RH  039%=      5-min Rain = 0
KMC1 151939Z 33011KT 13/M01 A3021 RMK A01 T01251008  RH  040%=      5-min Rain = 0
KMC1 151940Z 34008KT 13/M01 A302 RMK A01 T01261007  RH  040%=      5-min Rain = 0
KMC1 151941Z 33008KT 13/M01 A302 RMK A01 T01271006  RH  040%=      5-min Rain = 0
KMC1 151942Z 31006KT 13/M01 A302 RMK A01 T01271012  RH  038%=      5-min Rain = 0
KMC1 151943Z 33005KT 13/M01 A302 RMK A01 T01271010  RH  039%=      5-min Rain = 0
KMC1 151944Z 01010KT 13/M01 A302 RMK A01 T01271008  RH  039%=      5-min Rain = 0
KMC1 151945Z 35012KT 13/M00 A302 RMK A01 T01261004  RH  041%=      5-min Rain = 0
KMC1 151946Z 35010KT 13/M01 A302 RMK A01 T01261006  RH  040%=      5-min Rain = 0
KMC1 151947Z 01011KT 13/M00 A302 RMK A01 T01261002  RH  041%=      5-min Rain = 0
KMC1 151948Z 00009KT 13/M01 A302 RMK A01 T01261007  RH  040%=      5-min Rain = 0
KMC1 151949Z 36010KT 12/M01 A302 RMK A01 T01241007  RH  040%=      5-min Rain = 0
KMC1 151950Z 36010KT 12/M00 A302 RMK A01 T01231002  RH  042%=      5-min Rain = 0
KMC1 151951Z 00009KT 13/00 A302 RMK A01 T012600-0  RH  042%=      5-min Rain = 0
KMC1 151952Z 00011KT 13/M00 A302 RMK A01 T01261002  RH  041%=      5-min Rain = 0
KMC1 151953Z 01012KT 13/M00 A302 RMK A01 T01261001  RH  042%=      5-min Rain = 0
KMC1 151954Z 36009KT 13/M01 A302 RMK A01 T01261006  RH  040%=      5-min Rain = 0
KMC1 151955Z 33010KT 13/M01 A302 RMK A01 T01271008  RH  039%=      5-min Rain = 0
KMC1 151956Z 33011KT 13/M02 A302 RMK A01 T01271022  RH  035%=      5-min Rain = 0
KMC1 151957Z 34009KT 13/M02 A302 RMK A01 T01261020  RH  036%=      5-min Rain = 0
KMC1 151958Z 33009KT 13/M01 A302 RMK A01 T01251010  RH  039%=      5-min Rain = 0
KMC1 151959Z 34011KT 13/M00 A302 RMK A01 T01271002  RH  041%=      5-min Rain = 0
KMC1 152000Z 33009KT 13/M01 A302 RMK A01 T01281006  RH  040%=      5-min Rain = 0
KMC1 152001Z 34011KT 13/M01 A302 RMK A01 T01281007  RH  039%=      5-min Rain = 0
KMC1 152002Z 33009KT 13/M01 A302 RMK A01 T01271011  RH  038%=      5-min Rain = 0
KMC1 152003Z 33007KT 13/M01 A302 RMK A01 T01261006  RH  040%=      5-min Rain = 0
KMC1 152004Z 33007KT 13/M01 A302 RMK A01 T01261013  RH  038%=      5-min Rain = 0
KMC1 152005Z 32008KT 13/M01 A3019 RMK A01 T01261013  RH  038%=      5-min Rain = 0
KMC1 152006Z 01011G17KT 13/M01 A3019 RMK A01 T01261005  RH  040%=      5-min Rain = 0
KMC1 152007Z 34011KT 13/00 A3019 RMK A01 T01290001  RH  041%=      5-min Rain = 0
KMC1 152008Z 36011KT 13/00 A302 RMK A01 T01300004  RH  042%=      5-min Rain = 0
KMC1 152009Z 35010KT 13/01 A302 RMK A01 T01300005  RH  042%=      5-min Rain = 0
KMC1 152010Z 34011KT 13/00 A302 RMK A01 T01310001  RH  041%=      5-min Rain = 0
KMC1 152011Z 34007KT 13/M01 A302 RMK A01 T01291007  RH  039%=      5-min Rain = 0
KMC1 152012Z 34007G12KT 13/M00 A3019 RMK A01 T01281004  RH  040%=      5-min Rain = 0
KMC1 152013Z 34009KT 13/M00 A3019 RMK A01 T01281001  RH  041%=      5-min Rain = 0
KMC1 152014Z 33007KT 13/M01 A3019 RMK A01 T01281007  RH  039%=      5-min Rain = 0
KMC1 152015Z 34007G12KT 13/M01 A3019 RMK A01 T01271009  RH  039%=      5-min Rain = 0
KMC1 152016Z 36010KT 13/M01 A3019 RMK A01 T01271006  RH  040%=      5-min Rain = 0
KMC1 152017Z 00009KT 13/M01 A3019 RMK A01 T01271009  RH  039%=      5-min Rain = 0
KMC1 152018Z 01008KT 13/M01 A3019 RMK A01 T01271012  RH  038%=      5-min Rain = 0
KMC1 152019Z 36010KT 13/M00 A3019 RMK A01 T01281004  RH  040%=      5-min Rain = 0
KMC1 152020Z 35012KT 13/M01 A3019 RMK A01 T01301009  RH  038%=      5-min Rain = 0
KMC1 152021Z 34011KT 13/M01 A3019 RMK A01 T01301014  RH  037%=      5-min Rain = 0
KMC1 152022Z 35009KT 13/M02 A3019 RMK A01 T01291018  RH  036%=      5-min Rain = 0
KMC1 152023Z 36010KT 13/M01 A3019 RMK A01 T01301014  RH  037%=      5-min Rain = 0
KMC1 152024Z 35009KT 13/M01 A3019 RMK A01 T01301013  RH  037%=      5-min Rain = 0
KMC1 152025Z 36012KT 13/M02 A3019 RMK A01 T01301016  RH  036%=      5-min Rain = 0
KMC1 152026Z 34010KT 13/M02 A3019 RMK A01 T01291022  RH  035%=      5-min Rain = 0
KMC1 152027Z 33009KT 13/M02 A3019 RMK A01 T01281022  RH  035%=      5-min Rain = 0
KMC1 152028Z 34011KT 13/M01 A3019 RMK A01 T01271014  RH  038%=      5-min Rain = 0
KMC1 152029Z 34010KT 13/M01 A3019 RMK A01 T01291011  RH  038%=      5-min Rain = 0
KMC1 152030Z 35008KT 13/M01 A3019 RMK A01 T01301008  RH  038%=      5-min Rain = 0
KMC1 152031Z 35010KT 13/M01 A3019 RMK A01 T01311010  RH  038%=      5-min Rain = 0
KMC1 152032Z 34006KT 13/M01 A3019 RMK A01 T01301014  RH  037%=      5-min Rain = 0
KMC1 152033Z 33004KT 13/M02 A3019 RMK A01 T01291020  RH  036%=      5-min Rain = 0
KMC1 152034Z 34003KT 13/M02 A3019 RMK A01 T01281015  RH  037%=      5-min Rain = 0
KMC1 152035Z 35009G14KT 13/M01 A3019 RMK A01 T01301007  RH  039%=      5-min Rain = 0
KMC1 152036Z 35010KT 13/M00 A3019 RMK A01 T01311004  RH  039%=      5-min Rain = 0
KMC1 152037Z 35009KT 13/M01 A3019 RMK A01 T01311009  RH  038%=      5-min Rain = 0
KMC1 152038Z 36008KT 13/M01 A3019 RMK A01 T01291009  RH  038%=      5-min Rain = 0
KMC1 152039Z 35007KT 13/M01 A3019 RMK A01 T01291008  RH  039%=      5-min Rain = 0
KMC1 152040Z 01009KT 13/M01 A3019 RMK A01 T01301005  RH  039%=      5-min Rain = 0
KMC1 152041Z 01011KT 13/M01 A3019 RMK A01 T01331007  RH  038%=      5-min Rain = 0
KMC1 152042Z 36013KT 13/M00 A3019 RMK A01 T01331004  RH  039%=      5-min Rain = 0
KMC1 152043Z 34012KT 13/M01 A3019 RMK A01 T01321007  RH  038%=      5-min Rain = 0
KMC1 152044Z 35012KT 13/M01 A3019 RMK A01 T01311008  RH  038%=      5-min Rain = 0
KMC1 152045Z 35009KT 13/M01 A3019 RMK A01 T01301009  RH  038%=      5-min Rain = 0
KMC1 152046Z 33006KT 13/M01 A3019 RMK A01 T01291009  RH  038%=      5-min Rain = 0
KMC1 152047Z 32006KT 13/M01 A3019 RMK A01 T01311007  RH  039%=      5-min Rain = 0
KMC1 152048Z 33006KT 13/M01 A3018 RMK A01 T01331010  RH  037%=      5-min Rain = 0
KMC1 152049Z 35008KT 13/M01 A3018 RMK A01 T01341009  RH  037%=      5-min Rain = 0
KMC1 152050Z 01008KT 14/M01 A3018 RMK A01 T01351009  RH  037%=      5-min Rain = 0
KMC1 152051Z 36009KT 13/M01 A3018 RMK A01 T01341007  RH  038%=      5-min Rain = 0
KMC1 152052Z 36008KT 13/M01 A3018 RMK A01 T01331008  RH  038%=      5-min Rain = 0
KMC1 152053Z 35008KT 13/M01 A3018 RMK A01 T01321007  RH  038%=      5-min Rain = 0
KMC1 152054Z 35006KT 13/M00 A3018 RMK A01 T01321002  RH  040%=      5-min Rain = 0
KMC1 152055Z 34009KT 13/M00 A3018 RMK A01 T01341004  RH  039%=      5-min Rain = 0
KMC1 152056Z 35008KT 13/M01 A3018 RMK A01 T01341007  RH  038%=      5-min Rain = 0
KMC1 152057Z 34006KT 13/00 A3018 RMK A01 T013300-0  RH  040%=      5-min Rain = 0
KMC1 152058Z 30009KT 14/00 A3018 RMK A01 T013500-0  RH  039%=      5-min Rain = 0
KMC1 152059Z 28007KT 14/M00 A3018 RMK A01 T01381003  RH  038%=      5-min Rain = 0
KMC1 152100Z 28005KT 14/M01 A3018 RMK A01 T01371012  RH  036%=      5-min Rain = 0
KMC1 152101Z 31007KT 14/M01 A3018 RMK A01 T01361009  RH  037%=      5-min Rain = 0
KMC1 152102Z 33006KT 14/M01 A3018 RMK A01 T01361006  RH  038%=      5-min Rain = 0
KMC1 152103Z 34009KT 14/M00 A3018 RMK A01 T01361001  RH  039%=      5-min Rain = 0
KMC1 152104Z 35011KT 14/M00 A3018 RMK A01 T01361002  RH  039%=      5-min Rain = 0
KMC1 152105Z 35009KT 13/M01 A3018 RMK A01 T01341006  RH  038%=      5-min Rain = 0
KMC1 152106Z 35012KT 13/M00 A3018 RMK A01 T01341002  RH  039%=      5-min Rain = 0
KMC1 152107Z 34010KT 13/M01 A3018 RMK A01 T01331007  RH  038%=      5-min Rain = 0
KMC1 152108Z 35007KT 13/M01 A3018 RMK A01 T01311010  RH  037%=      5-min Rain = 0
KMC1 152109Z 35004KT 13/M01 A3018 RMK A01 T01311013  RH  037%=      5-min Rain = 0
KMC1 152110Z 31004KT 13/M01 A3018 RMK A01 T01311009  RH  038%=      5-min Rain = 0
KMC1 152111Z 31007KT 13/M01 A3018 RMK A01 T01321010  RH  037%=      5-min Rain = 0
KMC1 152112Z 31005KT 13/M01 A3018 RMK A01 T01331007  RH  038%=      5-min Rain = 0
KMC1 152113Z 29003KT 13/M01 A3018 RMK A01 T01341014  RH  036%=      5-min Rain = 0
KMC1 152114Z 34006KT 13/M01 A3018 RMK A01 T01341009  RH  037%=      5-min Rain = 0
KMC1 152115Z 32007KT 13/M01 A3018 RMK A01 T01341007  RH  038%=      5-min Rain = 0
KMC1 152116Z 31010KT 14/M00 A3018 RMK A01 T01361004  RH  038%=      5-min Rain = 0
KMC1 152117Z 30006KT 14/M01 A3018 RMK A01 T01371008  RH  037%=      5-min Rain = 0
KMC1 152118Z 31007KT 14/M01 A3018 RMK A01 T01361011  RH  036%=      5-min Rain = 0
KMC1 152119Z 29005KT 14/M00 A3018 RMK A01 T01361004  RH  038%=      5-min Rain = 0
KMC1 152120Z 31007KT 14/M00 A3017 RMK A01 T01381001  RH  038%=      5-min Rain = 0
KMC1 152121Z 35008KT 14/00 A3017 RMK A01 T01400003  RH  039%=      5-min Rain = 0
KMC1 152122Z 34008KT 14/M01 A3017 RMK A01 T01391005  RH  037%=      5-min Rain = 0
KMC1 152123Z 35007KT 14/M01 A3017 RMK A01 T01361012  RH  036%=      5-min Rain = 0
KMC1 152124Z 36009KT 14/M01 A3017 RMK A01 T01351009  RH  037%=      5-min Rain = 0
KMC1 152125Z 36008KT 14/M01 A3017 RMK A01 T01351006  RH  038%=      5-min Rain = 0
KMC1 152126Z 36007KT 14/M01 A3017 RMK A01 T01361008  RH  037%=      5-min Rain = 0
KMC1 152127Z 36007KT 14/M01 A3017 RMK A01 T01361012  RH  036%=      5-min Rain = 0
KMC1 152128Z 35009KT 14/M02 A3017 RMK A01 T01351018  RH  035%=      5-min Rain = 0
KMC1 152129Z 34006KT 13/M02 A3017 RMK A01 T01341016  RH  035%=      5-min Rain = 0
KMC1 152130Z 36006KT 13/M02 A3017 RMK A01 T01331015  RH  036%=      5-min Rain = 0
KMC1 152131Z 32008KT 14/M01 A3017 RMK A01 T01351006  RH  038%=      5-min Rain = 0
KMC1 152132Z 34007KT 14/M01 A3017 RMK A01 T01381007  RH  037%=      5-min Rain = 0
KMC1 152133Z 35010KT 14/M01 A3017 RMK A01 T01381012  RH  036%=      5-min Rain = 0
KMC1 152134Z 35007KT 14/M02 A3017 RMK A01 T01351015  RH  035%=      5-min Rain = 0
KMC1 152135Z 34009KT 13/M01 A3017 RMK A01 T01341012  RH  037%=      5-min Rain = 0
KMC1 152136Z 35009KT 13/M02 A3017 RMK A01 T01341015  RH  036%=      5-min Rain = 0
KMC1 152137Z 35010KT 13/M01 A3017 RMK A01 T01331014  RH  036%=      5-min Rain = 0
KMC1 152138Z 35009KT 13/M02 A3016 RMK A01 T01321018  RH  035%=      5-min Rain = 0
KMC1 152139Z 01008KT 13/M02 A3016 RMK A01 T01321018  RH  035%=      5-min Rain = 0
KMC1 152140Z 02009KT 13/M02 A3016 RMK A01 T01321020  RH  035%=      5-min Rain = 0
KMC1 152141Z 02007KT 13/M02 A3016 RMK A01 T01321019  RH  035%=      5-min Rain = 0
KMC1 152142Z 02007KT 13/M02 A3016 RMK A01 T01341015  RH  036%=      5-min Rain = 0
KMC1 152143Z 01007KT 14/M02 A3016 RMK A01 T01361018  RH  034%=      5-min Rain = 0
KMC1 152144Z 36008KT 14/M02 A3016 RMK A01 T01361020  RH  034%=      5-min Rain = 0
KMC1 152145Z 00009G14KT 14/M01 A3016 RMK A01 T01351013  RH  036%=      5-min Rain = 0
KMC1 152146Z 34011KT 14/M02 A3016 RMK A01 T01371015  RH  035%=      5-min Rain = 0
KMC1 152147Z 33008KT 14/M02 A3016 RMK A01 T01361019  RH  034%=      5-min Rain = 0
KMC1 152148Z 33008KT 13/M03 A3016 RMK A01 T01341027  RH  033%=      5-min Rain = 0
KMC1 152149Z 33006KT 13/M03 A3016 RMK A01 T01311025  RH  034%=      5-min Rain = 0
KMC1 152150Z 32005KT 13/M02 A3016 RMK A01 T01311022  RH  035%=      5-min Rain = 0
KMC1 152151Z 33007KT 13/M02 A3016 RMK A01 T01321022  RH  034%=      5-min Rain = 0
KMC1 152152Z 32005KT 13/M02 A3016 RMK A01 T01331023  RH  034%=      5-min Rain = 0
KMC1 152153Z 35006KT 13/M03 A3016 RMK A01 T01331025  RH  033%=      5-min Rain = 0
KMC1 152154Z 01007KT 13/M02 A3016 RMK A01 T01331021  RH  035%=      5-min Rain = 0
KMC1 152155Z 02007KT 13/M03 A3016 RMK A01 T01331025  RH  033%=      5-min Rain = 0
KMC1 152156Z 02008KT 13/M03 A3016 RMK A01 T01331025  RH  034%=      5-min Rain = 0
KMC1 152157Z 01007KT 13/M02 A3016 RMK A01 T01341018  RH  035%=      5-min Rain = 0
KMC1 152158Z 00008KT 13/M02 A3016 RMK A01 T01341018  RH  035%=      5-min Rain = 0
KMC1 152159Z 35010KT 13/M02 A3016 RMK A01 T01341022  RH  034%=      5-min Rain = 0
KMC1 152200Z 00007KT 13/M02 A3016 RMK A01 T01321024  RH  034%=      5-min Rain = 0
KMC1 152201Z 01009KT 13/M03 A3016 RMK A01 T01311027  RH  033%=      5-min Rain = 0
KMC1 152202Z 00005KT 13/M03 A3016 RMK A01 T01291029  RH  033%=      5-min Rain = 0
KMC1 152203Z 01007G12KT 13/M03 A3016 RMK A01 T01291025  RH  034%=      5-min Rain = 0
KMC1 152204Z 34010KT 13/M02 A3016 RMK A01 T01301019  RH  035%=      5-min Rain = 0
KMC1 152205Z 33008KT 13/M03 A3016 RMK A01 T01321025  RH  034%=      5-min Rain = 0
KMC1 152206Z 34007KT 13/M02 A3016 RMK A01 T01321021  RH  035%=      5-min Rain = 0
KMC1 152207Z 35007KT 13/M03 A3016 RMK A01 T01331028  RH  033%=      5-min Rain = 0
KMC1 152208Z 32007KT 13/M02 A3016 RMK A01 T01321022  RH  034%=      5-min Rain = 0
KMC1 152209Z 31005KT 13/M02 A3016 RMK A01 T01331017  RH  035%=      5-min Rain = 0
KMC1 152210Z 35007KT 14/M01 A3016 RMK A01 T01351012  RH  036%=      5-min Rain = 0
KMC1 152211Z 34007KT 14/M01 A3016 RMK A01 T01361014  RH  035%=      5-min Rain = 0
KMC1 152212Z 36007KT 14/M02 A3016 RMK A01 T01351017  RH  035%=      5-min Rain = 0
KMC1 152213Z 35007KT 14/M02 A3016 RMK A01 T01351021  RH  034%=      5-min Rain = 0
KMC1 152214Z 34008KT 13/M02 A3016 RMK A01 T01341019  RH  035%=      5-min Rain = 0
KMC1 152215Z 33010KT 13/M02 A3016 RMK A01 T01331020  RH  034%=      5-min Rain = 0
KMC1 152216Z 32006KT 13/M02 A3016 RMK A01 T01331019  RH  035%=      5-min Rain = 0
KMC1 152217Z 32009KT 13/M02 A3016 RMK A01 T01331017  RH  035%=      5-min Rain = 0
KMC1 152218Z 33009KT 13/M02 A3016 RMK A01 T01331019  RH  035%=      5-min Rain = 0
KMC1 152219Z 35009KT 13/M01 A3016 RMK A01 T01331014  RH  036%=      5-min Rain = 0
KMC1 152220Z 36009KT 13/M01 A3016 RMK A01 T01331014  RH  036%=      5-min Rain = 0
KMC1 152221Z 36005KT 13/M02 A3016 RMK A01 T01321018  RH  035%=      5-min Rain = 0
KMC1 152222Z 36005KT 13/M02 A3016 RMK A01 T01311017  RH  036%=      5-min Rain = 0
KMC1 152223Z 01005KT 13/M01 A3016 RMK A01 T01321013  RH  037%=      5-min Rain = 0
KMC1 152224Z 00005KT 13/M01 A3016 RMK A01 T01331011  RH  037%=      5-min Rain = 0
KMC1 152225Z 01008KT 13/M01 A3016 RMK A01 T01341011  RH  037%=      5-min Rain = 0
KMC1 152226Z 00006KT 13/M02 A3016 RMK A01 T01331015  RH  036%=      5-min Rain = 0
KMC1 152227Z 00005KT 13/M01 A3016 RMK A01 T01321013  RH  037%=      5-min Rain = 0
KMC1 152228Z 35005KT 13/M01 A3016 RMK A01 T01311011  RH  037%=      5-min Rain = 0
KMC1 152229Z 34006G11KT 13/M01 A3015 RMK A01 T01331005  RH  039%=      5-min Rain = 0
KMC1 152230Z 34008KT 13/M01 A3015 RMK A01 T01341011  RH  037%=      5-min Rain = 0
KMC1 152231Z 32008KT 13/M02 A3015 RMK A01 T01331017  RH  035%=      5-min Rain = 0
KMC1 152232Z 36008KT 13/M01 A3015 RMK A01 T01321012  RH  037%=      5-min Rain = 0
KMC1 152233Z 36009KT 13/M01 A3015 RMK A01 T01321011  RH  037%=      5-min Rain = 0
KMC1 152234Z 00008KT 13/M02 A3015 RMK A01 T01311016  RH  036%=      5-min Rain = 0
KMC1 152235Z 00007KT 13/M02 A3015 RMK A01 T01311015  RH  036%=      5-min Rain = 0
KMC1 152236Z 36006KT 13/M01 A3015 RMK A01 T01311011  RH  038%=      5-min Rain = 0
KMC1 152237Z 36006KT 13/M01 A3015 RMK A01 T01311009  RH  038%=      5-min Rain = 0
KMC1 152238Z 34006KT 13/M00 A3015 RMK A01 T01331003  RH  039%=      5-min Rain = 0
KMC1 152239Z 01006KT 13/M01 A3015 RMK A01 T01341011  RH  037%=      5-min Rain = 0
KMC1 152240Z 02006KT 13/M01 A3015 RMK A01 T01331011  RH  037%=      5-min Rain = 0
KMC1 152241Z 02003KT 13/M01 A3015 RMK A01 T01331013  RH  036%=      5-min Rain = 0
KMC1 152242Z 03005KT 13/M01 A3015 RMK A01 T01321012  RH  037%=      5-min Rain = 0
KMC1 152243Z 01009KT 13/M01 A3015 RMK A01 T01321005  RH  039%=      5-min Rain = 0
KMC1 152244Z 00010KT 13/M00 A3015 RMK A01 T01341004  RH  039%=      5-min Rain = 0
KMC1 152245Z 35009KT 13/M01 A3015 RMK A01 T01331009  RH  038%=      5-min Rain = 0
KMC1 152246Z 34007KT 13/M01 A3015 RMK A01 T01321012  RH  037%=      5-min Rain = 0
KMC1 152247Z 34009KT 13/M01 A3015 RMK A01 T01311009  RH  038%=      5-min Rain = 0
KMC1 152248Z 35008KT 13/M01 A3015 RMK A01 T01311009  RH  038%=      5-min Rain = 0
KMC1 152249Z 35008KT 13/M01 A3015 RMK A01 T01311008  RH  038%=      5-min Rain = 0
KMC1 152250Z 35010KT 13/M01 A3015 RMK A01 T01311010  RH  038%=      5-min Rain = 0
KMC1 152251Z 36009KT 13/M01 A3015 RMK A01 T01301007  RH  039%=      5-min Rain = 0
KMC1 152252Z 36008KT 13/M01 A3015 RMK A01 T01301007  RH  039%=      5-min Rain = 0
KMC1 152253Z 34008KT 13/M01 A3015 RMK A01 T01301007  RH  039%=      5-min Rain = 0
KMC1 152254Z 34008KT 13/M01 A3015 RMK A01 T01301007  RH  039%=      5-min Rain = 0
KMC1 152255Z 35007KT 13/M00 A3015 RMK A01 T01311002  RH  040%=      5-min Rain = 0
KMC1 152256Z 35008KT 13/M01 A3015 RMK A01 T01311006  RH  039%=      5-min Rain = 0
KMC1 152257Z 35006KT 13/M01 A3015 RMK A01 T01311007  RH  039%=      5-min Rain = 0
KMC1 152258Z 01005KT 13/M00 A3015 RMK A01 T01301002  RH  040%=      5-min Rain = 0
KMC1 152259Z 02008KT 13/M00 A3015 RMK A01 T01301003  RH  040%=      5-min Rain = 0
KMC1 152300Z 01008KT 13/M00 A3015 RMK A01 T01311002  RH  040%=      5-min Rain = 0
KMC1 152301Z 01008KT 13/M00 A3015 RMK A01 T01311004  RH  039%=      5-min Rain = 0
KMC1 152302Z 01009KT 13/M01 A3015 RMK A01 T01311005  RH  039%=      5-min Rain = 0
KMC1 152303Z 01007KT 13/M01 A3015 RMK A01 T01301007  RH  039%=      5-min Rain = 0
KMC1 152304Z 01007KT 13/M01 A3015 RMK A01 T01291009  RH  039%=      5-min Rain = 0
KMC1 152305Z 01007KT 13/M01 A3015 RMK A01 T01291006  RH  039%=      5-min Rain = 0
KMC1 152306Z 01004KT 13/M01 A3015 RMK A01 T01281009  RH  039%=      5-min Rain = 0
KMC1 152307Z 35004KT 13/M00 A3015 RMK A01 T01281004  RH  040%=      5-min Rain = 0
KMC1 152308Z 35005KT 13/M01 A3015 RMK A01 T01291007  RH  039%=      5-min Rain = 0
KMC1 152309Z 01006KT 13/M01 A3015 RMK A01 T01291005  RH  040%=      5-min Rain = 0
KMC1 152310Z 34008KT 13/M00 A3015 RMK A01 T01301002  RH  040%=      5-min Rain = 0
KMC1 152311Z 35008KT 13/M00 A3015 RMK A01 T01301004  RH  040%=      5-min Rain = 0
KMC1 152312Z 35006KT 13/M01 A3015 RMK A01 T01301005  RH  039%=      5-min Rain = 0
KMC1 152313Z 35004KT 13/M00 A3015 RMK A01 T01301002  RH  040%=      5-min Rain = 0
KMC1 152314Z 35005KT 13/M00 A3015 RMK A01 T01311002  RH  040%=      5-min Rain = 0
KMC1 152315Z 35008KT 13/00 A3016 RMK A01 T01310000  RH  041%=      5-min Rain = 0
KMC1 152316Z 36009KT 13/M01 A3016 RMK A01 T01311005  RH  039%=      5-min Rain = 0
KMC1 152317Z 36009KT 13/M01 A3016 RMK A01 T01301007  RH  039%=      5-min Rain = 0
KMC1 152318Z 36010KT 13/M01 A3015 RMK A01 T01281007  RH  039%=      5-min Rain = 0
KMC1 152319Z 36008KT 13/M01 A3016 RMK A01 T01271005  RH  040%=      5-min Rain = 0
KMC1 152320Z 36008KT 13/M01 A3016 RMK A01 T01271005  RH  040%=      5-min Rain = 0
KMC1 152321Z 35007KT 13/M01 A3016 RMK A01 T01271008  RH  039%=      5-min Rain = 0
KMC1 152322Z 35006KT 13/M01 A3016 RMK A01 T01261006  RH  040%=      5-min Rain = 0
KMC1 152323Z 35008KT 13/M01 A3016 RMK A01 T01271007  RH  040%=      5-min Rain = 0
KMC1 152324Z 01005KT 13/M01 A3015 RMK A01 T01261009  RH  039%=      5-min Rain = 0
KMC1 152325Z 00005KT 13/M01 A3015 RMK A01 T01261006  RH  040%=      5-min Rain = 0
KMC1 152326Z 01005KT 13/M01 A3015 RMK A01 T01271008  RH  039%=      5-min Rain = 0
KMC1 152327Z 01007KT 13/M01 A3015 RMK A01 T01271005  RH  040%=      5-min Rain = 0
KMC1 152328Z 00006KT 13/M01 A3015 RMK A01 T01271008  RH  039%=      5-min Rain = 0
KMC1 152329Z 35006KT 13/M01 A3015 RMK A01 T01271009  RH  039%=      5-min Rain = 0
KMC1 152330Z 33007KT 13/M01 A3015 RMK A01 T01271008  RH  039%=      5-min Rain = 0
KMC1 152331Z 00006KT 13/M01 A3015 RMK A01 T01271009  RH  039%=      5-min Rain = 0
KMC1 152332Z 01007KT 13/M01 A3015 RMK A01 T01261008  RH  040%=      5-min Rain = 0
KMC1 152333Z 34006KT 13/M01 A3015 RMK A01 T01261008  RH  039%=      5-min Rain = 0
KMC1 152334Z 34008KT 13/M01 A3015 RMK A01 T01261007  RH  040%=      5-min Rain = 0
KMC1 152335Z 33009KT 13/M01 A3015 RMK A01 T01271011  RH  039%=      5-min Rain = 0
KMC1 152336Z 33007KT 13/M01 A3015 RMK A01 T01261009  RH  039%=      5-min Rain = 0
KMC1 152337Z 34006KT 13/M01 A3015 RMK A01 T01261009  RH  039%=      5-min Rain = 0
KMC1 152338Z 34006KT 13/M01 A3015 RMK A01 T01261008  RH  039%=      5-min Rain = 0
KMC1 152339Z 34006KT 13/M01 A3015 RMK A01 T01261006  RH  040%=      5-min Rain = 0
KMC1 152340Z 35008KT 13/M01 A3015 RMK A01 T01261009  RH  039%=      5-min Rain = 0
KMC1 152341Z 33006KT 13/M01 A3015 RMK A01 T01251008  RH  040%=      5-min Rain = 0
KMC1 152342Z 35007KT 13/M01 A3015 RMK A01 T01251007  RH  040%=      5-min Rain = 0
KMC1 152343Z 36006KT 13/M01 A3015 RMK A01 T01251006  RH  041%=      5-min Rain = 0
KMC1 152344Z 35005KT 12/M00 A3015 RMK A01 T01241004  RH  041%=      5-min Rain = 0
KMC1 152345Z 35007KT 12/M01 A3015 RMK A01 T01241007  RH  040%=      5-min Rain = 0
KMC1 152346Z 35006KT 12/M01 A3015 RMK A01 T01241012  RH  039%=      5-min Rain = 0
KMC1 152347Z 36006KT 12/M01 A3015 RMK A01 T01231010  RH  040%=      5-min Rain = 0
KMC1 152348Z 36005KT 12/M01 A3015 RMK A01 T01231011  RH  039%=      5-min Rain = 0
KMC1 152349Z 01006KT 12/M01 A3015 RMK A01 T01231012  RH  039%=      5-min Rain = 0
KMC1 152350Z 00007KT 12/M01 A3015 RMK A01 T01231014  RH  039%=      5-min Rain = 0
KMC1 152351Z 36006KT 12/M02 A3015 RMK A01 T01231015  RH  038%=      5-min Rain = 0
KMC1 152352Z 01004KT 12/M01 A3015 RMK A01 T01221014  RH  039%=      5-min Rain = 0
KMC1 152353Z 01005KT 12/M01 A3015 RMK A01 T01221012  RH  039%=      5-min Rain = 0
KMC1 152354Z 36006KT 12/M02 A3016 RMK A01 T01221015  RH  038%=      5-min Rain = 0
KMC1 152355Z 01005KT 12/M02 A3016 RMK A01 T01221015  RH  039%=      5-min Rain = 0
KMC1 152356Z 36005KT 12/M01 A3016 RMK A01 T01211012  RH  040%=      5-min Rain = 0
KMC1 152357Z 36005KT 12/M01 A3016 RMK A01 T01211011  RH  040%=      5-min Rain = 0
KMC1 152358Z 00005KT 12/M01 A3016 RMK A01 T01201012  RH  040%=      5-min Rain = 0
KMC1 152359Z 36004KT 12/M01 A3016 RMK A01 T01201013  RH  040%=      5-min Rain = 0
KMC1 160000Z 35004KT 12/M01 A3016 RMK A01 T01201011  RH  040%=      5-min Rain = 0
KMC1 160001Z 34005KT 12/M01 A3016 RMK A01 T01191011  RH  040%=      5-min Rain = 0
KMC1 160002Z 34005KT 12/M01 A3016 RMK A01 T01191014  RH  040%=      5-min Rain = 0
KMC1 160003Z 35004KT 12/M01 A3016 RMK A01 T01191013  RH  040%=      5-min Rain = 0
KMC1 160004Z 35004KT 12/M01 A3016 RMK A01 T01181012  RH  040%=      5-min Rain = 0
KMC1 160005Z 35004KT 12/M01 A3016 RMK A01 T01181013  RH  040%=      5-min Rain = 0
KMC1 160006Z 36003KT 12/M02 A3016 RMK A01 T01181016  RH  039%=      5-min Rain = 0
KMC1 160007Z 36004KT 12/M02 A3016 RMK A01 T01181015  RH  039%=      5-min Rain = 0
KMC1 160008Z 01002KT 12/M01 A3016 RMK A01 T01181013  RH  040%=      5-min Rain = 0
KMC1 160009Z 01003KT 12/M01 A3016 RMK A01 T01171011  RH  041%=      5-min Rain = 0
KMC1 160010Z 01004KT 12/M01 A3016 RMK A01 T01171013  RH  040%=      5-min Rain = 0
KMC1 160011Z 36004KT 12/M01 A3016 RMK A01 T01171013  RH  041%=      5-min Rain = 0
KMC1 160012Z 01003KT 12/M01 A3016 RMK A01 T01161010  RH  042%=      5-min Rain = 0
KMC1 160013Z 01003KT 12/M01 A3016 RMK A01 T01151010  RH  042%=      5-min Rain = 0
KMC1 160014Z 02002KT 12/M01 A3016 RMK A01 T01151010  RH  042%=      5-min Rain = 0
KMC1 160015Z 00003KT 11/M01 A3016 RMK A01 T01141013  RH  041%=      5-min Rain = 0
KMC1 160016Z 36003KT 11/M01 A3016 RMK A01 T01141012  RH  041%=      5-min Rain = 0
KMC1 160017Z 01003KT 11/M01 A3016 RMK A01 T01141012  RH  042%=      5-min Rain = 0
KMC1 160018Z 01002KT 11/M01 A3016 RMK A01 T01141011  RH  042%=      5-min Rain = 0
KMC1 160019Z 35002KT 11/M01 A3016 RMK A01 T01131011  RH  042%=      5-min Rain = 0
KMC1 160020Z 36003KT 11/M01 A3016 RMK A01 T01131009  RH  043%=      5-min Rain = 0
KMC1 160021Z 02003KT 11/M01 A3016 RMK A01 T01111009  RH  043%=      5-min Rain = 0
KMC1 160022Z 01003KT 11/M01 A3016 RMK A01 T01111011  RH  043%=      5-min Rain = 0
KMC1 160023Z 01003KT 11/M01 A3016 RMK A01 T01101010  RH  043%=      5-min Rain = 0
KMC1 160024Z 01002KT 11/M01 A3016 RMK A01 T01101009  RH  044%=      5-min Rain = 0
KMC1 160025Z 01002KT 11/M01 A3016 RMK A01 T01091009  RH  044%=      5-min Rain = 0
KMC1 160026Z 00003KT 11/M01 A3016 RMK A01 T01081010  RH  044%=      5-min Rain = 0
KMC1 160027Z 00003KT 11/M01 A3016 RMK A01 T01081009  RH  044%=      5-min Rain = 0
KMC1 160028Z 01003KT 11/M01 A3016 RMK A01 T01071009  RH  044%=      5-min Rain = 0
KMC1 160029Z 01003KT 11/M01 A3016 RMK A01 T01071009  RH  045%=      5-min Rain = 0
KMC1 160030Z 01003KT 11/M01 A3016 RMK A01 T01061009  RH  045%=      5-min Rain = 0
KMC1 160031Z 02003KT 11/M01 A3017 RMK A01 T01061009  RH  045%=      5-min Rain = 0
KMC1 160032Z 01003KT 11/M01 A3017 RMK A01 T01051009  RH  045%=      5-min Rain = 0
KMC1 160033Z 02003KT 11/M01 A3017 RMK A01 T01051008  RH  045%=      5-min Rain = 0
KMC1 160034Z 02003KT 10/M01 A3017 RMK A01 T01041009  RH  045%=      5-min Rain = 0
KMC1 160035Z 03003KT 10/M01 A3017 RMK A01 T01041010  RH  045%=      5-min Rain = 0
KMC1 160036Z 03002KT 10/M01 A3017 RMK A01 T01031008  RH  046%=      5-min Rain = 0
KMC1 160037Z 04002KT 10/M01 A3017 RMK A01 T01021007  RH  047%=      5-min Rain = 0
KMC1 160038Z 04002KT 10/M01 A3017 RMK A01 T01011006  RH  047%=      5-min Rain = 0
KMC1 160039Z 05002KT 10/M01 A3017 RMK A01 T01001007  RH  047%=      5-min Rain = 0
KMC1 160040Z 05002KT 10/M01 A3017 RMK A01 T00991008  RH  047%=      5-min Rain = 0
KMC1 160041Z 05002KT 10/M01 A3017 RMK A01 T00981006  RH  048%=      5-min Rain = 0
KMC1 160042Z 04002KT 10/M01 A3017 RMK A01 T00971007  RH  048%=      5-min Rain = 0
KMC1 160043Z 04003KT 10/M01 A3017 RMK A01 T00971007  RH  049%=      5-min Rain = 0
KMC1 160044Z 04003KT 10/M01 A3017 RMK A01 T00961006  RH  049%=      5-min Rain = 0
KMC1 160045Z 04003KT 10/M01 A3017 RMK A01 T00951006  RH  049%=      5-min Rain = 0
KMC1 160046Z 04003KT 10/M01 A3017 RMK A01 T00951005  RH  050%=      5-min Rain = 0
KMC1 160047Z 03003KT 10/M01 A3017 RMK A01 T00951006  RH  049%=      5-min Rain = 0
KMC1 160048Z 03003KT 09/M01 A3017 RMK A01 T00941006  RH  050%=      5-min Rain = 0
KMC1 160049Z 03003KT 09/M01 A3017 RMK A01 T00941005  RH  050%=      5-min Rain = 0
KMC1 160050Z 04003KT 09/M00 A3017 RMK A01 T00931004  RH  051%=      5-min Rain = 0
KMC1 160051Z 03003KT 09/M01 A3017 RMK A01 T00921005  RH  051%=      5-min Rain = 0
KMC1 160052Z 03003KT 09/M01 A3017 RMK A01 T00911006  RH  051%=      5-min Rain = 0
KMC1 160053Z 03003KT 09/M01 A3017 RMK A01 T00911006  RH  051%=      5-min Rain = 0
KMC1 160054Z 03003KT 09/M01 A3017 RMK A01 T00911006  RH  051%=      5-min Rain = 0
KMC1 160055Z 03003KT 09/M01 A3017 RMK A01 T00911005  RH  051%=      5-min Rain = 0
KMC1 160056Z 03003KT 09/M00 A3017 RMK A01 T00911004  RH  052%=      5-min Rain = 0
KMC1 160057Z 04003KT 09/M00 A3017 RMK A01 T00901003  RH  052%=      5-min Rain = 0
KMC1 160058Z 04003KT 09/M00 A3017 RMK A01 T00891004  RH  052%=      5-min Rain = 0
KMC1 160059Z 04003KT 09/M00 A3017 RMK A01 T00891004  RH  052%=      5-min Rain = 0
KMC1 160100Z 04003KT 09/M00 A3017 RMK A01 T00881004  RH  052%=      5-min Rain = 0
KMC1 160101Z 04003KT 09/M00 A3017 RMK A01 T00881004  RH  052%=      5-min Rain = 0
KMC1 160102Z 04003KT 09/M01 A3017 RMK A01 T00871005  RH  052%=      5-min Rain = 0
KMC1 160103Z 04003KT 09/M00 A3017 RMK A01 T00871004  RH  053%=      5-min Rain = 0
KMC1 160104Z 04003KT 09/M01 A3017 RMK A01 T00861005  RH  053%=      5-min Rain = 0
KMC1 160105Z 05003KT 09/M00 A3017 RMK A01 T00861004  RH  053%=      5-min Rain = 0
KMC1 160106Z 05003KT 09/M00 A3017 RMK A01 T00851004  RH  053%=      5-min Rain = 0
KMC1 160107Z 05003KT 08/M00 A3017 RMK A01 T00841004  RH  054%=      5-min Rain = 0
KMC1 160108Z 06002KT 08/M00 A3017 RMK A01 T00841003  RH  054%=      5-min Rain = 0
KMC1 160109Z 06002KT 08/M00 A3017 RMK A01 T00841004  RH  054%=      5-min Rain = 0
KMC1 160110Z 05003KT 08/M00 A3017 RMK A01 T00831003  RH  054%=      5-min Rain = 0
KMC1 160111Z 05003KT 08/M00 A3017 RMK A01 T00831004  RH  054%=      5-min Rain = 0
KMC1 160112Z 04003KT 08/M00 A3017 RMK A01 T00831004  RH  054%=      5-min Rain = 0
KMC1 160113Z 05003KT 08/M00 A3017 RMK A01 T00821004  RH  054%=      5-min Rain = 0
KMC1 160114Z 04003KT 08/M00 A3017 RMK A01 T00821004  RH  054%=      5-min Rain = 0
KMC1 160115Z 05003KT 08/M00 A3017 RMK A01 T00831004  RH  054%=      5-min Rain = 0
KMC1 160116Z 05003KT 08/M00 A3017 RMK A01 T00831003  RH  054%=      5-min Rain = 0
KMC1 160117Z 05003KT 08/M00 A3017 RMK A01 T00831004  RH  054%=      5-min Rain = 0
KMC1 160118Z 05003KT 08/M00 A3017 RMK A01 T00831004  RH  054%=      5-min Rain = 0
KMC1 160119Z 05003KT 08/M01 A3017 RMK A01 T00831005  RH  054%=      5-min Rain = 0
KMC1 160120Z 06002KT 08/M00 A3017 RMK A01 T00831004  RH  054%=      5-min Rain = 0
KMC1 160121Z 06002KT 08/M00 A3017 RMK A01 T00821004  RH  054%=      5-min Rain = 0
KMC1 160122Z 07002KT 08/M00 A3017 RMK A01 T00821004  RH  055%=      5-min Rain = 0
KMC1 160123Z 06002KT 08/M00 A3017 RMK A01 T00821004  RH  055%=      5-min Rain = 0
KMC1 160124Z 06002KT 08/M00 A3017 RMK A01 T00821004  RH  055%=      5-min Rain = 0
KMC1 160125Z 06002KT 08/M00 A3017 RMK A01 T00811004  RH  055%=      5-min Rain = 0
KMC1 160126Z 06002KT 08/M00 A3017 RMK A01 T00811004  RH  055%=      5-min Rain = 0
KMC1 160127Z 07002KT 08/M01 A3017 RMK A01 T00811005  RH  055%=      5-min Rain = 0
KMC1 160128Z 07002KT 08/M00 A3017 RMK A01 T00811004  RH  055%=      5-min Rain = 0
KMC1 160129Z 06002KT 08/M00 A3017 RMK A01 T00811004  RH  055%=      5-min Rain = 0
KMC1 160130Z 05002KT 08/M01 A3017 RMK A01 T00811005  RH  055%=      5-min Rain = 0
KMC1 160131Z 07002KT 08/M01 A3017 RMK A01 T00811005  RH  055%=      5-min Rain = 0
KMC1 160132Z 08002KT 08/M01 A3017 RMK A01 T00811005  RH  055%=      5-min Rain = 0
KMC1 160133Z 08002KT 08/M01 A3017 RMK A01 T00811006  RH  054%=      5-min Rain = 0
KMC1 160134Z 07002KT 08/M01 A3018 RMK A01 T00811005  RH  054%=      5-min Rain = 0
KMC1 160135Z 07002KT 08/M01 A3018 RMK A01 T00811005  RH  054%=      5-min Rain = 0
KMC1 160136Z 07002KT 08/M01 A3018 RMK A01 T00811005  RH  054%=      5-min Rain = 0
KMC1 160137Z 07002KT 08/M01 A3017 RMK A01 T00811005  RH  055%=      5-min Rain = 0
KMC1 160138Z 07003KT 08/M01 A3017 RMK A01 T00811005  RH  055%=      5-min Rain = 0
KMC1 160139Z 07003KT 08/M01 A3017 RMK A01 T00811005  RH  055%=      5-min Rain = 0
KMC1 160140Z 08002KT 08/M01 A3017 RMK A01 T00801005  RH  055%=      5-min Rain = 0
KMC1 160141Z 07002KT 08/M01 A3017 RMK A01 T00801005  RH  055%=      5-min Rain = 0
KMC1 160142Z 07002KT 08/M00 A3017 RMK A01 T00791004  RH  055%=      5-min Rain = 0
KMC1 160143Z 07002KT 08/M01 A3017 RMK A01 T00791005  RH  055%=      5-min Rain = 0
KMC1 160144Z 07002KT 08/M01 A3017 RMK A01 T00781005  RH  055%=      5-min Rain = 0
KMC1 160145Z 07002KT 08/M01 A3017 RMK A01 T00781005  RH  056%=      5-min Rain = 0
KMC1 160146Z 08002KT 08/M01 A3017 RMK A01 T00781006  RH  055%=      5-min Rain = 0
KMC1 160147Z 07002KT 08/M01 A3017 RMK A01 T00791005  RH  055%=      5-min Rain = 0
KMC1 160148Z 07002KT 08/M01 A3017 RMK A01 T00791005  RH  055%=      5-min Rain = 0
KMC1 160149Z 07003KT 08/M01 A3017 RMK A01 T00791005  RH  055%=      5-min Rain = 0
KMC1 160150Z 07003KT 08/M01 A3017 RMK A01 T00791005  RH  056%=      5-min Rain = 0
KMC1 160151Z 07003KT 08/M01 A3017 RMK A01 T00781005  RH  056%=      5-min Rain = 0
KMC1 160152Z 07003KT 08/M01 A3017 RMK A01 T00781005  RH  056%=      5-min Rain = 0
KMC1 160153Z 07003KT 08/M01 A3017 RMK A01 T00781005  RH  056%=      5-min Rain = 0
KMC1 160154Z 07003KT 08/M01 A3017 RMK A01 T00771005  RH  056%=      5-min Rain = 0
KMC1 160155Z 07003KT 08/M01 A3017 RMK A01 T00771005  RH  056%=      5-min Rain = 0
KMC1 160156Z 06003KT 08/M01 A3017 RMK A01 T00771005  RH  056%=      5-min Rain = 0
KMC1 160157Z 06003KT 08/M01 A3017 RMK A01 T00761005  RH  056%=      5-min Rain = 0
KMC1 160158Z 06003KT 08/M01 A3017 RMK A01 T00761005  RH  056%=      5-min Rain = 0
KMC1 160159Z 06002KT 08/M01 A3017 RMK A01 T00761006  RH  056%=      5-min Rain = 0
KMC1 160200Z 06002KT 08/M01 A3017 RMK A01 T00761006  RH  056%=      5-min Rain = 0
KMC1 160201Z 06002KT 08/M01 A3017 RMK A01 T00771006  RH  056%=      5-min Rain = 0
KMC1 160202Z 06002KT 08/M01 A3017 RMK A01 T00771006  RH  056%=      5-min Rain = 0
KMC1 160203Z 06002KT 08/M01 A3017 RMK A01 T00771006  RH  056%=      5-min Rain = 0
KMC1 160204Z 06002KT 08/M01 A3017 RMK A01 T00771006  RH  056%=      5-min Rain = 0
KMC1 160205Z 06002KT 08/M01 A3017 RMK A01 T00771006  RH  056%=      5-min Rain = 0
KMC1 160206Z 05002KT 08/M01 A3017 RMK A01 T00771006  RH  056%=      5-min Rain = 0
KMC1 160207Z 05002KT 08/M01 A3017 RMK A01 T00771007  RH  056%=      5-min Rain = 0
KMC1 160208Z 05002KT 08/M01 A3017 RMK A01 T00771006  RH  056%=      5-min Rain = 0
KMC1 160209Z 04002KT 08/M01 A3017 RMK A01 T00771006  RH  056%=      5-min Rain = 0
KMC1 160210Z 05002KT 08/M01 A3017 RMK A01 T00771006  RH  056%=      5-min Rain = 0
KMC1 160211Z 05002KT 08/M01 A3017 RMK A01 T00751007  RH  056%=      5-min Rain = 0
KMC1 160212Z 05002KT 08/M01 A3017 RMK A01 T00751007  RH  056%=      5-min Rain = 0
KMC1 160213Z 05002KT 07/M01 A3017 RMK A01 T00741007  RH  056%=      5-min Rain = 0
KMC1 160214Z 05002KT 07/M01 A3017 RMK A01 T00741006  RH  057%=      5-min Rain = 0
KMC1 160215Z 05002KT 07/M01 A3017 RMK A01 T00741006  RH  057%=      5-min Rain = 0
KMC1 160216Z 05002KT 07/M01 A3017 RMK A01 T00741006  RH  057%=      5-min Rain = 0
KMC1 160217Z 05002KT 07/M01 A3017 RMK A01 T00741006  RH  057%=      5-min Rain = 0
KMC1 160218Z 05002KT 07/M01 A3017 RMK A01 T00741006  RH  057%=      5-min Rain = 0
KMC1 160219Z 05002KT 07/M01 A3017 RMK A01 T00731006  RH  057%=      5-min Rain = 0
KMC1 160220Z 05002KT 07/M01 A3017 RMK A01 T00721007  RH  057%=      5-min Rain = 0
KMC1 160221Z 06002KT 07/M01 A3017 RMK A01 T00711006  RH  058%=      5-min Rain = 0
KMC1 160222Z 06001KT 07/M01 A3017 RMK A01 T00711006  RH  058%=      5-min Rain = 0
KMC1 160223Z 06001KT 07/M01 A3018 RMK A01 T00711006  RH  058%=      5-min Rain = 0
KMC1 160224Z 05001KT 07/M01 A3018 RMK A01 T00691006  RH  059%=      5-min Rain = 0
KMC1 160225Z 06002KT 07/M01 A3018 RMK A01 T00691006  RH  059%=      5-min Rain = 0
KMC1 160226Z 06002KT 07/M01 A3018 RMK A01 T00681006  RH  059%=      5-min Rain = 0
KMC1 160227Z 06002KT 07/M01 A3018 RMK A01 T00671007  RH  059%=      5-min Rain = 0
KMC1 160228Z 07001KT 07/M01 A3018 RMK A01 T00661007  RH  060%=      5-min Rain = 0
KMC1 160229Z 07001KT 07/M01 A3018 RMK A01 T00651007  RH  060%=      5-min Rain = 0
KMC1 160230Z 07000KT 06/M01 A3018 RMK A01 T00641007  RH  061%=      5-min Rain = 0
KMC1 160231Z 07001KT 06/M01 A3018 RMK A01 T00631007  RH  061%=      5-min Rain = 0
KMC1 160232Z 07001KT 06/M00 A3018 RMK A01 T00621001  RH  064%=      5-min Rain = 0
KMC1 160233Z 06001KT 06/00 A3018 RMK A01 T00610003  RH  066%=      5-min Rain = 0
KMC1 160234Z 04000KT 06/01 A3018 RMK A01 T00610005  RH  068%=      5-min Rain = 0
KMC1 160235Z 04000KT 06/01 A3018 RMK A01 T00610006  RH  068%=      5-min Rain = 0
KMC1 160236Z 04000KT 06/01 A3018 RMK A01 T00610008  RH  069%=      5-min Rain = 0
KMC1 160237Z 03000KT 06/01 A3018 RMK A01 T00610006  RH  068%=      5-min Rain = 0
KMC1 160238Z 02000KT 06/00 A3017 RMK A01 T00600003  RH  067%=      5-min Rain = 0
KMC1 160239Z 02000KT 06/00 A3017 RMK A01 T00600004  RH  067%=      5-min Rain = 0
KMC1 160240Z 01001KT 06/01 A3017 RMK A01 T00610005  RH  068%=      5-min Rain = 0
KMC1 160241Z 00001KT 06/00 A3017 RMK A01 T00610004  RH  067%=      5-min Rain = 0
KMC1 160242Z 00001KT 06/00 A3017 RMK A01 T00620003  RH  066%=      5-min Rain = 0
KMC1 160243Z 01002KT 06/01 A3017 RMK A01 T00620006  RH  067%=      5-min Rain = 0
KMC1 160244Z 00002KT 06/01 A3017 RMK A01 T00620008  RH  068%=      5-min Rain = 0
KMC1 160245Z 00002KT 06/01 A3017 RMK A01 T00620008  RH  068%=      5-min Rain = 0
KMC1 160246Z 00002KT 06/01 A3018 RMK A01 T00610007  RH  068%=      5-min Rain = 0
KMC1 160247Z 00002KT 06/00 A3018 RMK A01 T00600004  RH  067%=      5-min Rain = 0
KMC1 160248Z 00002KT 06/00 A3018 RMK A01 T00590003  RH  067%=      5-min Rain = 0
KMC1 160249Z 00002KT 06/00 A3018 RMK A01 T00590003  RH  067%=      5-min Rain = 0
KMC1 160250Z 00002KT 06/00 A3018 RMK A01 T00590002  RH  067%=      5-min Rain = 0
KMC1 160251Z 00002KT 06/00 A3018 RMK A01 T00590002  RH  067%=      5-min Rain = 0
KMC1 160252Z 00002KT 06/00 A3018 RMK A01 T00590001  RH  066%=      5-min Rain = 0
KMC1 160253Z 00001KT 06/00 A3018 RMK A01 T00590001  RH  066%=      5-min Rain = 0
KMC1 160254Z 00001KT 06/00 A3018 RMK A01 T00590001  RH  066%=      5-min Rain = 0
KMC1 160255Z 00002KT 06/00 A3018 RMK A01 T00590000  RH  066%=      5-min Rain = 0
KMC1 160256Z 35002KT 06/00 A3018 RMK A01 T00590001  RH  066%=      5-min Rain = 0
KMC1 160257Z 36002KT 06/00 A3018 RMK A01 T00590001  RH  066%=      5-min Rain = 0
KMC1 160258Z 35002KT 06/00 A3018 RMK A01 T00590001  RH  066%=      5-min Rain = 0
KMC1 160259Z 35002KT 06/00 A3018 RMK A01 T00580001  RH  067%=      5-min Rain = 0
KMC1 160300Z 35001KT 06/00 A3018 RMK A01 T00580001  RH  067%=      5-min Rain = 0
KMC1 160301Z 36001KT 06/00 A3018 RMK A01 T00580001  RH  067%=      5-min Rain = 0
KMC1 160302Z 00001KT 06/00 A3018 RMK A01 T005700-0  RH  067%=      5-min Rain = 0
KMC1 160303Z 00002KT 06/M00 A3018 RMK A01 T00561002  RH  066%=      5-min Rain = 0
KMC1 160304Z 00001KT 06/M00 A3018 RMK A01 T00551002  RH  067%=      5-min Rain = 0
KMC1 160305Z 01001KT 05/M00 A3018 RMK A01 T00541002  RH  067%=      5-min Rain = 0
KMC1 160306Z 01000KT 05/M00 A3018 RMK A01 T00531003  RH  067%=      5-min Rain = 0
KMC1 160307Z 00000KT 05/M00 A3018 RMK A01 T00501003  RH  068%=      5-min Rain = 0
KMC1 160308Z 00000KT 05/M00 A3018 RMK A01 T00491003  RH  069%=      5-min Rain = 0
KMC1 160309Z 00000KT 05/M00 A3018 RMK A01 T00481003  RH  070%=      5-min Rain = 0
KMC1 160310Z 00000KT 05/M00 A3018 RMK A01 T00471003  RH  070%=      5-min Rain = 0
KMC1 160311Z 00000KT 05/M00 A3018 RMK A01 T00471003  RH  070%=      5-min Rain = 0
KMC1 160312Z 00000KT 05/M00 A3018 RMK A01 T00461003  RH  070%=      5-min Rain = 0
KMC1 160313Z 00000KT 05/M00 A3018 RMK A01 T00461003  RH  071%=      5-min Rain = 0
KMC1 160314Z 00000KT 05/M00 A3018 RMK A01 T00451003  RH  071%=      5-min Rain = 0
KMC1 160315Z 00000KT 05/M00 A3019 RMK A01 T00451003  RH  071%=      5-min Rain = 0
KMC1 160316Z 22000KT 04/M00 A3019 RMK A01 T00441002  RH  072%=      5-min Rain = 0
KMC1 160317Z 22001KT 04/00 A3019 RMK A01 T00430000  RH  074%=      5-min Rain = 0
KMC1 160318Z 21001KT 04/M00 A3019 RMK A01 T00411001  RH  074%=      5-min Rain = 0
KMC1 160319Z 21001KT 04/M00 A3019 RMK A01 T00411002  RH  074%=      5-min Rain = 0
KMC1 160320Z 21000KT 04/M00 A3019 RMK A01 T00411002  RH  074%=      5-min Rain = 0
KMC1 160321Z 21000KT 04/M00 A3019 RMK A01 T00411002  RH  074%=      5-min Rain = 0
KMC1 160322Z 22000KT 04/M00 A3018 RMK A01 T00411002  RH  074%=      5-min Rain = 0
KMC1 160323Z 22000KT 04/M00 A3018 RMK A01 T00411002  RH  073%=      5-min Rain = 0
KMC1 160324Z 22000KT 04/M00 A3018 RMK A01 T00411002  RH  073%=      5-min Rain = 0
KMC1 160325Z 00000KT 04/M00 A3018 RMK A01 T00411002  RH  073%=      5-min Rain = 0
KMC1 160326Z 00000KT 04/M00 A3019 RMK A01 T00411002  RH  073%=      5-min Rain = 0
KMC1 160327Z 00000KT 04/M00 A3019 RMK A01 T00411002  RH  074%=      5-min Rain = 0
KMC1 160328Z 00000KT 04/M00 A3019 RMK A01 T00411002  RH  074%=      5-min Rain = 0
KMC1 160329Z 00000KT 04/M00 A3019 RMK A01 T00411002  RH  074%=      5-min Rain = 0
KMC1 160330Z 00000KT 04/M00 A3019 RMK A01 T00401003  RH  073%=      5-min Rain = 0
KMC1 160331Z 00000KT 04/M00 A3019 RMK A01 T00391003  RH  074%=      5-min Rain = 0
KMC1 160332Z 00000KT 04/M00 A3019 RMK A01 T00391003  RH  074%=      5-min Rain = 0
KMC1 160333Z 00000KT 04/M00 A3019 RMK A01 T00381004  RH  074%=      5-min Rain = 0
KMC1 160334Z 00000KT 04/M00 A3019 RMK A01 T00381004  RH  074%=      5-min Rain = 0
KMC1 160335Z 19000KT 04/M00 A3019 RMK A01 T00381004  RH  074%=      5-min Rain = 0
KMC1 160336Z 19000KT 04/M00 A3019 RMK A01 T00391004  RH  074%=      5-min Rain = 0
KMC1 160337Z 19000KT 04/M00 A3019 RMK A01 T00381004  RH  074%=      5-min Rain = 0
KMC1 160338Z 19000KT 04/M00 A3019 RMK A01 T00391004  RH  074%=      5-min Rain = 0
KMC1 160339Z 20001KT 04/M00 A3019 RMK A01 T00381004  RH  074%=      5-min Rain = 0
KMC1 160340Z 20001KT 04/M00 A3019 RMK A01 T00371003  RH  075%=      5-min Rain = 0
KMC1 160341Z 20001KT 04/M00 A3019 RMK A01 T00361004  RH  075%=      5-min Rain = 0
KMC1 160342Z 19001KT 04/M00 A3019 RMK A01 T00351004  RH  075%=      5-min Rain = 0
KMC1 160343Z 20001KT 04/M00 A3019 RMK A01 T00351004  RH  076%=      5-min Rain = 0
KMC1 160344Z 20002KT 04/M00 A3019 RMK A01 T00351004  RH  076%=      5-min Rain = 0
KMC1 160345Z 20001KT 04/M00 A3019 RMK A01 T00361003  RH  076%=      5-min Rain = 0
KMC1 160346Z 21001KT 04/M00 A3019 RMK A01 T00361003  RH  076%=      5-min Rain = 0
KMC1 160347Z 21001KT 04/M00 A3019 RMK A01 T00361003  RH  075%=      5-min Rain = 0
KMC1 160348Z 21001KT 04/M00 A3019 RMK A01 T00361004  RH  075%=      5-min Rain = 0
KMC1 160349Z 21001KT 04/M00 A3019 RMK A01 T00361004  RH  075%=      5-min Rain = 0
KMC1 160350Z 22001KT 04/M00 A3019 RMK A01 T00371003  RH  075%=      5-min Rain = 0
KMC1 160351Z 22001KT 04/M00 A3019 RMK A01 T00371003  RH  075%=      5-min Rain = 0
KMC1 160352Z 22001KT 04/M00 A3019 RMK A01 T00361004  RH  075%=      5-min Rain = 0
KMC1 160353Z 22001KT 04/M00 A3019 RMK A01 T00361003  RH  076%=      5-min Rain = 0
KMC1 160354Z 22001KT 04/M00 A3019 RMK A01 T00351003  RH  076%=      5-min Rain = 0
KMC1 160355Z 22000KT 04/M00 A3019 RMK A01 T00351003  RH  077%=      5-min Rain = 0
KMC1 160356Z 22000KT 03/M00 A3019 RMK A01 T00341002  RH  077%=      5-min Rain = 0
KMC1 160357Z 00000KT 03/00 A3019 RMK A01 T00340001  RH  079%=      5-min Rain = 0
KMC1 160358Z 00000KT 03/00 A3019 RMK A01 T00330001  RH  079%=      5-min Rain = 0
KMC1 160359Z 00000KT 03/00 A3019 RMK A01 T003300-0  RH  079%=      5-min Rain = 0
KMC1 160400Z 00000KT 03/M00 A3019 RMK A01 T00321001  RH  079%=      5-min Rain = 0
KMC1 160401Z 00000KT 03/M00 A3019 RMK A01 T00321002  RH  079%=      5-min Rain = 0
KMC1 160402Z 00000KT 03/M00 A3019 RMK A01 T00311002  RH  079%=      5-min Rain = 0
KMC1 160403Z 00000KT 03/M00 A3019 RMK A01 T00311002  RH  079%=      5-min Rain = 0
KMC1 160404Z 00000KT 03/M00 A3019 RMK A01 T00301003  RH  079%=      5-min Rain = 0
KMC1 160405Z 00000KT 03/M00 A3019 RMK A01 T00301004  RH  079%=      5-min Rain = 0
KMC1 160406Z 00000KT 03/M00 A3019 RMK A01 T00301002  RH  079%=      5-min Rain = 0
KMC1 160407Z 23000KT 03/M00 A3019 RMK A01 T00291001  RH  080%=      5-min Rain = 0
KMC1 160408Z 22001KT 03/M00 A3019 RMK A01 T00291004  RH  079%=      5-min Rain = 0
KMC1 160409Z 22002KT 03/M01 A3019 RMK A01 T00281005  RH  079%=      5-min Rain = 0
KMC1 160410Z 22002KT 03/M00 A3019 RMK A01 T00261003  RH  081%=      5-min Rain = 0
KMC1 160411Z 22002KT 03/M00 A3019 RMK A01 T00251002  RH  082%=      5-min Rain = 0
KMC1 160412Z 22001KT 03/M00 A3019 RMK A01 T00251002  RH  083%=      5-min Rain = 0
KMC1 160413Z 00000KT 02/M00 A3019 RMK A01 T00241002  RH  083%=      5-min Rain = 0
KMC1 160414Z 00000KT 02/M00 A3019 RMK A01 T00241003  RH  083%=      5-min Rain = 0
KMC1 160415Z 00000KT 02/M00 A3019 RMK A01 T00241002  RH  083%=      5-min Rain = 0
KMC1 160416Z 00000KT 02/M00 A3018 RMK A01 T00241002  RH  083%=      5-min Rain = 0
KMC1 160417Z 00000KT 03/M00 A3019 RMK A01 T00251002  RH  083%=      5-min Rain = 0
KMC1 160418Z 21001KT 03/M00 A3019 RMK A01 T00251002  RH  083%=      5-min Rain = 0
KMC1 160419Z 21002KT 03/M00 A3019 RMK A01 T00251002  RH  082%=      5-min Rain = 0
KMC1 160420Z 21002KT 03/M00 A3019 RMK A01 T00251002  RH  083%=      5-min Rain = 0
KMC1 160421Z 21002KT 02/M00 A3019 RMK A01 T00231003  RH  083%=      5-min Rain = 0
KMC1 160422Z 21002KT 02/M00 A3019 RMK A01 T00211004  RH  083%=      5-min Rain = 0
KMC1 160423Z 22002KT 02/M01 A3019 RMK A01 T00201005  RH  083%=      5-min Rain = 0
KMC1 160424Z 23002KT 02/M01 A3019 RMK A01 T00191006  RH  084%=      5-min Rain = 0
KMC1 160425Z 23002KT 02/M01 A3019 RMK A01 T00181005  RH  085%=      5-min Rain = 0
KMC1 160426Z 22002KT 02/M01 A3019 RMK A01 T00171005  RH  086%=      5-min Rain = 0
KMC1 160427Z 22002KT 02/M00 A3019 RMK A01 T00161004  RH  086%=      5-min Rain = 0
KMC1 160428Z 22002KT 02/M00 A3019 RMK A01 T00151004  RH  087%=      5-min Rain = 0
KMC1 160429Z 22002KT 02/M00 A3019 RMK A01 T00151004  RH  087%=      5-min Rain = 0
KMC1 160430Z 21002KT 01/M00 A3019 RMK A01 T00141004  RH  087%=      5-min Rain = 0
KMC1 160431Z 21002KT 01/M01 A3019 RMK A01 T00131005  RH  088%=      5-min Rain = 0
KMC1 160432Z 21002KT 01/M01 A3018 RMK A01 T00131005  RH  088%=      5-min Rain = 0
KMC1 160433Z 21002KT 01/M00 A3018 RMK A01 T00131004  RH  088%=      5-min Rain = 0
KMC1 160434Z 21002KT 01/M00 A3018 RMK A01 T00131004  RH  089%=      5-min Rain = 0
KMC1 160435Z 20003KT 01/M00 A3018 RMK A01 T00121004  RH  089%=      5-min Rain = 0
KMC1 160436Z 20003KT 01/M00 A3018 RMK A01 T00121004  RH  089%=      5-min Rain = 0
KMC1 160437Z 20003KT 01/M00 A3018 RMK A01 T00121004  RH  089%=      5-min Rain = 0
KMC1 160438Z 20003KT 01/M00 A3019 RMK A01 T00121004  RH  089%=      5-min Rain = 0
KMC1 160439Z 20003KT 01/M01 A3019 RMK A01 T00121005  RH  089%=      5-min Rain = 0
KMC1 160440Z 19003KT 01/M01 A3019 RMK A01 T00111005  RH  089%=      5-min Rain = 0
KMC1 160441Z 19003KT 01/M01 A3019 RMK A01 T00111005  RH  089%=      5-min Rain = 0
KMC1 160442Z 19002KT 01/M01 A3019 RMK A01 T00111005  RH  089%=      5-min Rain = 0
KMC1 160443Z 19003KT 01/M01 A3019 RMK A01 T00101006  RH  089%=      5-min Rain = 0
KMC1 160444Z 19002KT 01/M01 A3019 RMK A01 T00111005  RH  089%=      5-min Rain = 0
KMC1 160445Z 20003KT 01/M01 A3019 RMK A01 T00111005  RH  089%=      5-min Rain = 0
KMC1 160446Z 20003KT 01/M01 A3019 RMK A01 T00111005  RH  089%=      5-min Rain = 0
KMC1 160447Z 21003KT 01/M01 A3019 RMK A01 T00111005  RH  089%=      5-min Rain = 0
KMC1 160448Z 21003KT 01/M01 A3019 RMK A01 T00121005  RH  089%=      5-min Rain = 0
KMC1 160449Z 21003KT 01/M01 A3018 RMK A01 T00121005  RH  089%=      5-min Rain = 0
KMC1 160450Z 21003KT 01/M01 A3018 RMK A01 T00121005  RH  088%=      5-min Rain = 0
KMC1 160451Z 20003KT 01/M01 A3018 RMK A01 T00121005  RH  088%=      5-min Rain = 0
KMC1 160452Z 20003KT 01/M01 A3018 RMK A01 T00121005  RH  088%=      5-min Rain = 0
KMC1 160453Z 19003KT 01/M01 A3019 RMK A01 T00121005  RH  088%=      5-min Rain = 0
KMC1 160454Z 19003KT 01/M01 A3019 RMK A01 T00121005  RH  088%=      5-min Rain = 0
KMC1 160455Z 19003KT 01/M01 A3019 RMK A01 T00111006  RH  088%=      5-min Rain = 0
KMC1 160456Z 20003KT 01/M01 A3019 RMK A01 T00121006  RH  088%=      5-min Rain = 0
KMC1 160457Z 20003KT 01/M01 A3019 RMK A01 T00121006  RH  088%=      5-min Rain = 0
KMC1 160458Z 21003KT 01/M01 A3019 RMK A01 T00121006  RH  088%=      5-min Rain = 0
KMC1 160459Z 21003KT 01/M01 A3019 RMK A01 T00121006  RH  088%=      5-min Rain = 0
KMC1 160500Z 22003KT 01/M01 A3019 RMK A01 T00121006  RH  088%=      5-min Rain = 0
KMC1 160501Z 22003KT 01/M01 A3019 RMK A01 T00111006  RH  088%=      5-min Rain = 0
KMC1 160502Z 22003KT 01/M01 A3019 RMK A01 T00101006  RH  089%=      5-min Rain = 0
KMC1 160503Z 21003KT 01/M01 A3019 RMK A01 T00091007  RH  089%=      5-min Rain = 0
KMC1 160504Z 21003KT 01/M01 A3019 RMK A01 T00081008  RH  089%=      5-min Rain = 0
KMC1 160505Z 21003KT 01/M01 A3019 RMK A01 T00071009  RH  089%=      5-min Rain = 0
KMC1 160506Z 20004KT 01/M01 A3019 RMK A01 T00061009  RH  089%=      5-min Rain = 0
KMC1 160507Z 20004KT 01/M01 A3019 RMK A01 T00061009  RH  090%=      5-min Rain = 0
KMC1 160508Z 20004KT 01/M01 A3019 RMK A01 T00051009  RH  090%=      5-min Rain = 0
KMC1 160509Z 20004KT 01/M01 A3019 RMK A01 T00051008  RH  090%=      5-min Rain = 0
KMC1 160510Z 20003KT 01/M01 A3019 RMK A01 T00051009  RH  091%=      5-min Rain = 0
KMC1 160511Z 20003KT 01/M01 A3019 RMK A01 T00051008  RH  091%=      5-min Rain = 0
KMC1 160512Z 20003KT 01/M01 A3019 RMK A01 T00051008  RH  091%=      5-min Rain = 0
KMC1 160513Z 19003KT 01/M01 A3019 RMK A01 T00051008  RH  091%=      5-min Rain = 0
KMC1 160514Z 19003KT 01/M01 A3019 RMK A01 T00051008  RH  091%=      5-min Rain = 0
KMC1 160515Z 19003KT 01/M01 A3019 RMK A01 T00061008  RH  091%=      5-min Rain = 0
KMC1 160516Z 19003KT 01/M01 A3019 RMK A01 T00051008  RH  091%=      5-min Rain = 0
KMC1 160517Z 19004KT 01/M01 A3019 RMK A01 T00051008  RH  091%=      5-min Rain = 0
KMC1 160518Z 19004KT 01/M01 A3019 RMK A01 T00061008  RH  091%=      5-min Rain = 0
KMC1 160519Z 20004KT 01/M01 A3019 RMK A01 T00061007  RH  091%=      5-min Rain = 0
KMC1 160520Z 19004KT 01/M01 A3019 RMK A01 T00071007  RH  090%=      5-min Rain = 0
KMC1 160521Z 19004KT 01/M01 A3019 RMK A01 T00071007  RH  090%=      5-min Rain = 0
KMC1 160522Z 19004KT 01/M01 A3019 RMK A01 T00081007  RH  090%=      5-min Rain = 0
KMC1 160523Z 19004KT 01/M01 A3019 RMK A01 T00081007  RH  090%=      5-min Rain = 0
KMC1 160524Z 19003KT 01/M01 A3019 RMK A01 T00081008  RH  089%=      5-min Rain = 0
KMC1 160525Z 19003KT 01/M01 A3019 RMK A01 T00081008  RH  089%=      5-min Rain = 0
KMC1 160526Z 19003KT 01/M01 A3019 RMK A01 T00081008  RH  089%=      5-min Rain = 0
KMC1 160527Z 19003KT 01/M01 A3018 RMK A01 T00081007  RH  089%=      5-min Rain = 0
KMC1 160528Z 19003KT 01/M01 A3018 RMK A01 T00081008  RH  089%=      5-min Rain = 0
KMC1 160529Z 19002KT 01/M01 A3018 RMK A01 T00081008  RH  089%=      5-min Rain = 0
KMC1 160530Z 19003KT 01/M01 A3018 RMK A01 T00081008  RH  089%=      5-min Rain = 0
KMC1 160531Z 19003KT 01/M01 A3018 RMK A01 T00081008  RH  089%=      5-min Rain = 0
KMC1 160532Z 20003KT 01/M01 A3018 RMK A01 T00091008  RH  089%=      5-min Rain = 0
KMC1 160533Z 20003KT 01/M01 A3018 RMK A01 T00091008  RH  088%=      5-min Rain = 0
KMC1 160534Z 20002KT 01/M01 A3018 RMK A01 T00091008  RH  089%=      5-min Rain = 0
KMC1 160535Z 20002KT 01/M01 A3018 RMK A01 T00091008  RH  089%=      5-min Rain = 0
KMC1 160536Z 20002KT 01/M01 A3018 RMK A01 T00091007  RH  089%=      5-min Rain = 0
KMC1 160537Z 20002KT 01/M01 A3018 RMK A01 T00081008  RH  089%=      5-min Rain = 0
KMC1 160538Z 20002KT 01/M01 A3018 RMK A01 T00081008  RH  089%=      5-min Rain = 0
KMC1 160539Z 20002KT 01/M01 A3018 RMK A01 T00081008  RH  089%=      5-min Rain = 0
KMC1 160540Z 21002KT 01/M01 A3018 RMK A01 T00071008  RH  090%=      5-min Rain = 0
KMC1 160541Z 21002KT 01/M01 A3018 RMK A01 T00071008  RH  090%=      5-min Rain = 0
KMC1 160542Z 20002KT 01/M01 A3018 RMK A01 T00061009  RH  090%=      5-min Rain = 0
KMC1 160543Z 20002KT 01/M01 A3018 RMK A01 T00051010  RH  090%=      5-min Rain = 0
KMC1 160544Z 20002KT 00/M01 A3018 RMK A01 T00041010  RH  090%=      5-min Rain = 0
KMC1 160545Z 20002KT 00/M01 A3018 RMK A01 T00031010  RH  091%=      5-min Rain = 0
KMC1 160546Z 21002KT 00/M01 A3018 RMK A01 T00031011  RH  091%=      5-min Rain = 0
KMC1 160547Z 21002KT 00/M01 A3018 RMK A01 T00031011  RH  091%=      5-min Rain = 0
KMC1 160548Z 22002KT 00/M01 A3018 RMK A01 T00021011  RH  091%=      5-min Rain = 0
KMC1 160549Z 23002KT 00/M01 A3018 RMK A01 T00021011  RH  091%=      5-min Rain = 0
KMC1 160550Z 24001KT 00/M01 A3018 RMK A01 T00021011  RH  091%=      5-min Rain = 0
KMC1 160551Z 24001KT 00/M01 A3018 RMK A01 T00011011  RH  091%=      5-min Rain = 0
KMC1 160552Z 25002KT 00/M01 A3018 RMK A01 T00011011  RH  092%=      5-min Rain = 0
KMC1 160553Z 25002KT 00/M01 A3018 RMK A01 T00011011  RH  092%=      5-min Rain = 0
KMC1 160554Z 26002KT 00/01 A3018 RMK A01 T00-00-12  RH  092%=      5-min Rain = 0
KMC1 160555Z 26002KT 00/01 A3018 RMK A01 T00-00-12  RH  092%=      5-min Rain = 0
KMC1 160556Z 25002KT 00/01 A3018 RMK A01 T00-00-11  RH  092%=      5-min Rain = 0
KMC1 160557Z 25002KT M00/M01 A3018 RMK A01 T10011012  RH  092%=      5-min Rain = 0
KMC1 160558Z 25002KT M00/M01 A3018 RMK A01 T10011011  RH  093%=      5-min Rain = 0
KMC1 160559Z 25003KT M00/M01 A3018 RMK A01 T10011012  RH  093%=      5-min Rain = 0

Page generated in 0.1747 seconds.